UAE176 ULLI-OMDB
Flight info
| Callsign | UAE176 |
|---|---|
| Flight time | 6h 41m |
| Altitude | 35000 |
| Route | SUGIN T873 NIRGI T73 DESUD P164 ROKUR T784 OTKOL OKSUD T778 MOF M161 URL M158 ATR W324 AKT Q161 TIROM A87 ASB KEMOR B449 RANAH DILAM PG T385 TAPDO A454 VUSET R462 MIXAM P899 ITRAX |
| Aircraft | B77W/H-SDE1E2E3FGHIJ2J3J4J5M1RWXYZ/LB1D1 |
Departure
| Time | 2026-04-25 10:08 |
|---|---|
| Airport | Pulkovo Airport (ULLI) |
Arrival
| Time | 2026-04-25 16:49 |
|---|---|
| Airport | Dubai International Airport (OMDB) |
| Time | Latitude | Longitude | Altitude | Speed | Heading |
|---|---|---|---|---|---|
| 2026-04-25 09:19 | 59.80261 | 30.26954 | 87 ft | 0 kts | 106° |
| 2026-04-25 09:56 | 59.80261 | 30.26953 | 83 ft | 1 kts | 106° |
| 2026-04-25 09:56 | 59.80264 | 30.26927 | 88 ft | 4 kts | 67° |
| 2026-04-25 09:56 | 59.80257 | 30.26882 | 87 ft | 4 kts | 83° |
| 2026-04-25 09:56 | 59.80251 | 30.26834 | 85 ft | 4 kts | 61° |
| 2026-04-25 09:57 | 59.80236 | 30.26797 | 87 ft | 4 kts | 35° |
| 2026-04-25 09:57 | 59.80214 | 30.26774 | 87 ft | 4 kts | 18° |
| 2026-04-25 09:57 | 59.80201 | 30.26765 | 87 ft | 0 kts | 16° |
| 2026-04-25 10:00 | 59.80202 | 30.26766 | 87 ft | 3 kts | 16° |
| 2026-04-25 10:00 | 59.80257 | 30.26798 | 86 ft | 13 kts | 16° |
| 2026-04-25 10:01 | 59.80341 | 30.26847 | 87 ft | 10 kts | 16° |
| 2026-04-25 10:01 | 59.80373 | 30.26911 | 88 ft | 5 kts | 69° |
| 2026-04-25 10:01 | 59.80373 | 30.27000 | 87 ft | 11 kts | 98° |
| 2026-04-25 10:01 | 59.80346 | 30.27200 | 88 ft | 16 kts | 107° |
| 2026-04-25 10:02 | 59.80314 | 30.27408 | 88 ft | 16 kts | 106° |
| 2026-04-25 10:02 | 59.80284 | 30.27616 | 87 ft | 16 kts | 106° |
| 2026-04-25 10:02 | 59.80253 | 30.27823 | 85 ft | 16 kts | 106° |
| 2026-04-25 10:02 | 59.80222 | 30.28031 | 85 ft | 16 kts | 106° |
| 2026-04-25 10:03 | 59.80202 | 30.28169 | 86 ft | 16 kts | 106° |
| 2026-04-25 10:03 | 59.80159 | 30.28443 | 85 ft | 16 kts | 107° |
| 2026-04-25 10:03 | 59.80128 | 30.28650 | 86 ft | 16 kts | 107° |
| 2026-04-25 10:03 | 59.80097 | 30.28858 | 84 ft | 16 kts | 107° |
| 2026-04-25 10:04 | 59.80076 | 30.28998 | 82 ft | 16 kts | 107° |
| 2026-04-25 10:04 | 59.80046 | 30.29207 | 83 ft | 16 kts | 105° |
| 2026-04-25 10:04 | 59.80016 | 30.29412 | 84 ft | 16 kts | 106° |
| 2026-04-25 10:04 | 59.79985 | 30.29620 | 83 ft | 16 kts | 106° |
| 2026-04-25 10:05 | 59.79955 | 30.29827 | 84 ft | 16 kts | 106° |
| 2026-04-25 10:05 | 59.79953 | 30.30038 | 84 ft | 16 kts | 63° |
| 2026-04-25 10:05 | 59.80022 | 30.30204 | 81 ft | 16 kts | 47° |
| 2026-04-25 10:05 | 59.80097 | 30.30260 | 82 ft | 7 kts | 339° |
| 2026-04-25 10:06 | 59.80125 | 30.30185 | 82 ft | 7 kts | 297° |
| 2026-04-25 10:06 | 59.80132 | 30.30145 | 81 ft | 0 kts | 284° |
| 2026-04-25 10:07 | 59.80143 | 30.30062 | 80 ft | 31 kts | 285° |
| 2026-04-25 10:07 | 59.80295 | 30.29036 | 82 ft | 123 kts | 287° |
| 2026-04-25 10:07 | 59.80628 | 30.26834 | 89 ft | 207 kts | 287° |
| 2026-04-25 10:08 | 59.81053 | 30.23960 | 1113 ft | 202 kts | 279° |
| 2026-04-25 10:08 | 59.81370 | 30.21370 | 2915 ft | 199 kts | 278° |
| 2026-04-25 10:08 | 59.81716 | 30.18708 | 4386 ft | 194 kts | 279° |
| 2026-04-25 10:08 | 59.82072 | 30.16056 | 5731 ft | 202 kts | 281° |
| 2026-04-25 10:09 | 59.82449 | 30.13337 | 6422 ft | 211 kts | 281° |
| 2026-04-25 10:09 | 59.82818 | 30.10406 | 6850 ft | 217 kts | 283° |
| 2026-04-25 10:09 | 59.83385 | 30.07574 | 7388 ft | 229 kts | 290° |
| 2026-04-25 10:09 | 59.83858 | 30.04465 | 7637 ft | 242 kts | 273° |
| 2026-04-25 10:10 | 59.83695 | 30.01356 | 8714 ft | 225 kts | 253° |
| 2026-04-25 10:10 | 59.83334 | 29.99450 | 9006 ft | 233 kts | 246° |
| 2026-04-25 10:10 | 59.82337 | 29.96735 | 9516 ft | 247 kts | 227° |
| 2026-04-25 10:10 | 59.80717 | 29.95093 | 9556 ft | 280 kts | 200° |
| 2026-04-25 10:11 | 59.78727 | 29.94082 | 9487 ft | 311 kts | 200° |
| 2026-04-25 10:11 | 59.76539 | 29.93473 | 9485 ft | 326 kts | 180° |
| 2026-04-25 10:11 | 59.74328 | 29.94777 | 9504 ft | 341 kts | 154° |
| 2026-04-25 10:11 | 59.72538 | 29.97927 | 9502 ft | 353 kts | 127° |
| 2026-04-25 10:12 | 59.71532 | 30.02387 | 9502 ft | 356 kts | 107° |
| 2026-04-25 10:12 | 59.70892 | 30.07133 | 9511 ft | 358 kts | 107° |
| 2026-04-25 10:12 | 59.69573 | 30.16700 | 9505 ft | 358 kts | 101° |
| 2026-04-25 10:13 | 59.69385 | 30.21648 | 9505 ft | 361 kts | 91° |
| 2026-04-25 10:13 | 59.69381 | 30.26629 | 9492 ft | 362 kts | 91° |
| 2026-04-25 10:13 | 59.69354 | 30.31582 | 9467 ft | 358 kts | 91° |
| 2026-04-25 10:13 | 59.69228 | 30.36469 | 9457 ft | 353 kts | 99° |
| 2026-04-25 10:14 | 59.68775 | 30.41223 | 9498 ft | 351 kts | 104° |
| 2026-04-25 10:14 | 59.68203 | 30.45943 | 9511 ft | 353 kts | 105° |
| 2026-04-25 10:14 | 59.67634 | 30.50615 | 9534 ft | 355 kts | 104° |
| 2026-04-25 10:14 | 59.67072 | 30.55467 | 9487 ft | 359 kts | 103° |
| 2026-04-25 10:15 | 59.66546 | 30.60266 | 9496 ft | 355 kts | 103° |
| 2026-04-25 10:15 | 59.66032 | 30.65019 | 9496 ft | 352 kts | 103° |
| 2026-04-25 10:15 | 59.65531 | 30.69681 | 9500 ft | 351 kts | 103° |
| 2026-04-25 10:15 | 59.65085 | 30.74415 | 9501 ft | 351 kts | 100° |
| 2026-04-25 10:16 | 59.64694 | 30.79186 | 9514 ft | 351 kts | 99° |
| 2026-04-25 10:16 | 59.64318 | 30.83936 | 9516 ft | 351 kts | 99° |
| 2026-04-25 10:16 | 59.63939 | 30.88708 | 9582 ft | 351 kts | 99° |
| 2026-04-25 10:16 | 59.63542 | 30.93604 | 9760 ft | 373 kts | 99° |
| 2026-04-25 10:17 | 59.63117 | 30.98760 | 10274 ft | 386 kts | 99° |
| 2026-04-25 10:17 | 59.62679 | 31.04053 | 10956 ft | 394 kts | 99° |
| 2026-04-25 10:17 | 59.62226 | 31.09447 | 11654 ft | 401 kts | 99° |
| 2026-04-25 10:17 | 59.61763 | 31.14915 | 12459 ft | 406 kts | 99° |
| 2026-04-25 10:18 | 59.61291 | 31.20451 | 13265 ft | 411 kts | 99° |
| 2026-04-25 10:18 | 59.60809 | 31.26067 | 13954 ft | 417 kts | 99° |
| 2026-04-25 10:18 | 59.60318 | 31.31741 | 14659 ft | 421 kts | 98° |
| 2026-04-25 10:18 | 59.59818 | 31.37490 | 15389 ft | 426 kts | 98° |
| 2026-04-25 10:19 | 59.59311 | 31.43278 | 16121 ft | 430 kts | 98° |
| 2026-04-25 10:19 | 59.58796 | 31.49136 | 16839 ft | 435 kts | 98° |
| 2026-04-25 10:19 | 59.58273 | 31.55063 | 17499 ft | 441 kts | 98° |
| 2026-04-25 10:19 | 59.57740 | 31.61058 | 18145 ft | 446 kts | 98° |
| 2026-04-25 10:20 | 59.57207 | 31.67035 | 18756 ft | 450 kts | 98° |
| 2026-04-25 10:20 | 59.56659 | 31.73137 | 19356 ft | 454 kts | 98° |
| 2026-04-25 10:20 | 59.56104 | 31.79290 | 19949 ft | 458 kts | 97° |
| 2026-04-25 10:20 | 59.55541 | 31.85500 | 20529 ft | 463 kts | 97° |
| 2026-04-25 10:21 | 59.54968 | 31.91787 | 21117 ft | 467 kts | 97° |
| 2026-04-25 10:21 | 59.54388 | 31.98122 | 21683 ft | 472 kts | 97° |
| 2026-04-25 10:21 | 59.53797 | 32.04496 | 22237 ft | 474 kts | 98° |
| 2026-04-25 10:21 | 59.52793 | 32.10725 | 22598 ft | 485 kts | 115° |
| 2026-04-25 10:22 | 59.50830 | 32.16180 | 23080 ft | 490 kts | 135° |
| 2026-04-25 10:22 | 59.48380 | 32.20820 | 23482 ft | 492 kts | 137° |
| 2026-04-25 10:22 | 59.45890 | 32.25496 | 23880 ft | 497 kts | 136° |
| 2026-04-25 10:22 | 59.42948 | 32.31086 | 24416 ft | 501 kts | 136° |
| 2026-04-25 10:23 | 59.40892 | 32.35031 | 24793 ft | 503 kts | 136° |
| 2026-04-25 10:23 | 59.38394 | 32.39856 | 25261 ft | 506 kts | 136° |
| 2026-04-25 10:23 | 59.35880 | 32.44728 | 25682 ft | 509 kts | 135° |
| 2026-04-25 10:23 | 59.33351 | 32.49629 | 26063 ft | 514 kts | 135° |
| 2026-04-25 10:24 | 59.30798 | 32.54568 | 26466 ft | 517 kts | 135° |
| 2026-04-25 10:24 | 59.28234 | 32.59515 | 26902 ft | 520 kts | 136° |
| 2026-04-25 10:24 | 59.25676 | 32.64436 | 27303 ft | 522 kts | 136° |
| 2026-04-25 10:24 | 59.23079 | 32.69419 | 27657 ft | 526 kts | 136° |
| 2026-04-25 10:25 | 59.20459 | 32.74433 | 28015 ft | 529 kts | 136° |
| 2026-04-25 10:25 | 59.17815 | 32.79481 | 28361 ft | 532 kts | 136° |
| 2026-04-25 10:25 | 59.15163 | 32.84531 | 28722 ft | 534 kts | 136° |
| 2026-04-25 10:25 | 59.12504 | 32.89584 | 29140 ft | 535 kts | 136° |
| 2026-04-25 10:26 | 59.09837 | 32.94643 | 29652 ft | 534 kts | 136° |
| 2026-04-25 10:26 | 59.07185 | 32.99661 | 30078 ft | 532 kts | 136° |
| 2026-04-25 10:26 | 59.04537 | 33.04658 | 30526 ft | 529 kts | 136° |
| 2026-04-25 10:26 | 59.01891 | 33.09643 | 30930 ft | 528 kts | 136° |
| 2026-04-25 10:27 | 58.99260 | 33.14588 | 31330 ft | 527 kts | 136° |
| 2026-04-25 10:27 | 58.96625 | 33.19531 | 31745 ft | 525 kts | 136° |
| 2026-04-25 10:27 | 58.94043 | 33.24365 | 32140 ft | 524 kts | 136° |
| 2026-04-25 10:27 | 58.91422 | 33.29258 | 32496 ft | 523 kts | 136° |
| 2026-04-25 10:28 | 58.88801 | 33.34135 | 32875 ft | 522 kts | 136° |
| 2026-04-25 10:28 | 58.86189 | 33.38982 | 33262 ft | 520 kts | 136° |
| 2026-04-25 10:28 | 58.83580 | 33.43813 | 33628 ft | 518 kts | 136° |
| 2026-04-25 10:28 | 58.80978 | 33.48620 | 33885 ft | 518 kts | 136° |
| 2026-04-25 10:29 | 58.78383 | 33.53409 | 34136 ft | 517 kts | 136° |
| 2026-04-25 10:29 | 58.75786 | 33.58190 | 34416 ft | 516 kts | 136° |
| 2026-04-25 10:29 | 58.73180 | 33.62979 | 34538 ft | 519 kts | 136° |
| 2026-04-25 10:30 | 58.67946 | 33.72566 | 34591 ft | 519 kts | 136° |
| 2026-04-25 10:30 | 58.62744 | 33.82051 | 34600 ft | 513 kts | 136° |
| 2026-04-25 10:31 | 58.57562 | 33.91460 | 34608 ft | 512 kts | 136° |
| 2026-04-25 10:31 | 58.52386 | 34.00819 | 34612 ft | 512 kts | 136° |
| 2026-04-25 10:32 | 58.47202 | 34.10152 | 34623 ft | 513 kts | 136° |
| 2026-04-25 10:32 | 58.41989 | 34.19498 | 34623 ft | 514 kts | 136° |
| 2026-04-25 10:33 | 58.36787 | 34.28784 | 34631 ft | 516 kts | 136° |
| 2026-04-25 10:33 | 58.31536 | 34.38120 | 34632 ft | 517 kts | 136° |
| 2026-04-25 10:34 | 58.26276 | 34.47431 | 34635 ft | 517 kts | 136° |
| 2026-04-25 10:34 | 58.20996 | 34.56743 | 34636 ft | 517 kts | 136° |
| 2026-04-25 10:35 | 58.15604 | 34.65743 | 34641 ft | 516 kts | 140° |
| 2026-04-25 10:35 | 58.10047 | 34.74354 | 34640 ft | 516 kts | 140° |
| 2026-04-25 10:36 | 58.04491 | 34.82967 | 34648 ft | 516 kts | 140° |
| 2026-04-25 10:36 | 57.98973 | 34.91606 | 34655 ft | 516 kts | 140° |
| 2026-04-25 10:37 | 57.93446 | 35.00260 | 34659 ft | 516 kts | 140° |
| 2026-04-25 10:37 | 57.87919 | 35.08877 | 34658 ft | 516 kts | 140° |
| 2026-04-25 10:38 | 57.82386 | 35.17459 | 34659 ft | 516 kts | 140° |
| 2026-04-25 10:38 | 57.76841 | 35.26021 | 34668 ft | 516 kts | 140° |
| 2026-04-25 10:39 | 57.71337 | 35.34490 | 34669 ft | 516 kts | 140° |
| 2026-04-25 10:39 | 57.65794 | 35.42986 | 34666 ft | 515 kts | 140° |
| 2026-04-25 10:40 | 57.60860 | 35.52558 | 34676 ft | 511 kts | 123° |
| 2026-04-25 10:40 | 57.57561 | 35.64174 | 34679 ft | 506 kts | 107° |
| 2026-04-25 10:41 | 57.55228 | 35.76562 | 34677 ft | 507 kts | 107° |
| 2026-04-25 10:41 | 57.52860 | 35.88853 | 34686 ft | 508 kts | 108° |
| 2026-04-25 10:42 | 57.50400 | 36.01173 | 34676 ft | 508 kts | 108° |
| 2026-04-25 10:42 | 57.47928 | 36.13471 | 34683 ft | 508 kts | 108° |
| 2026-04-25 10:43 | 57.45455 | 36.25759 | 34679 ft | 508 kts | 108° |
| 2026-04-25 10:43 | 57.42974 | 36.38041 | 34688 ft | 508 kts | 108° |
| 2026-04-25 10:44 | 57.40482 | 36.50299 | 34678 ft | 507 kts | 108° |
| 2026-04-25 10:44 | 57.37981 | 36.62521 | 34683 ft | 507 kts | 108° |
| 2026-04-25 10:45 | 57.35472 | 36.74710 | 34679 ft | 506 kts | 109° |
| 2026-04-25 10:45 | 57.32950 | 36.86883 | 34683 ft | 506 kts | 109° |
| 2026-04-25 10:46 | 57.30420 | 36.99023 | 34681 ft | 505 kts | 109° |
| 2026-04-25 10:46 | 57.27882 | 37.11132 | 34686 ft | 505 kts | 109° |
| 2026-04-25 10:47 | 57.25334 | 37.23218 | 34682 ft | 505 kts | 109° |
| 2026-04-25 10:47 | 57.22790 | 37.35209 | 34679 ft | 504 kts | 109° |
| 2026-04-25 10:48 | 57.20222 | 37.47250 | 34676 ft | 504 kts | 109° |
| 2026-04-25 10:48 | 57.17646 | 37.59264 | 34675 ft | 504 kts | 109° |
| 2026-04-25 10:49 | 57.15442 | 37.71471 | 34675 ft | 501 kts | 102° |
| 2026-04-25 10:49 | 57.13694 | 37.83896 | 34680 ft | 501 kts | 102° |
| 2026-04-25 10:50 | 57.11942 | 37.96306 | 34678 ft | 501 kts | 102° |
| 2026-04-25 10:50 | 57.10150 | 38.08685 | 34679 ft | 501 kts | 103° |
| 2026-04-25 10:51 | 57.08330 | 38.21043 | 34681 ft | 501 kts | 103° |
| 2026-04-25 10:51 | 57.06495 | 38.33399 | 34681 ft | 501 kts | 103° |
| 2026-04-25 10:52 | 57.04652 | 38.45733 | 34671 ft | 500 kts | 103° |
| 2026-04-25 10:52 | 57.03114 | 38.55952 | 34676 ft | 500 kts | 103° |
| 2026-04-25 10:53 | 57.01255 | 38.68232 | 34676 ft | 499 kts | 104° |
| 2026-04-25 10:53 | 56.99382 | 38.80504 | 34676 ft | 499 kts | 104° |
| 2026-04-25 10:54 | 56.97500 | 38.92747 | 34673 ft | 499 kts | 104° |
| 2026-04-25 10:54 | 56.95607 | 39.04973 | 34673 ft | 498 kts | 104° |
| 2026-04-25 10:55 | 56.93704 | 39.17175 | 34673 ft | 498 kts | 104° |
| 2026-04-25 10:55 | 56.91791 | 39.29352 | 34673 ft | 498 kts | 104° |
| 2026-04-25 10:56 | 56.89879 | 39.41436 | 34667 ft | 498 kts | 104° |
| 2026-04-25 10:56 | 56.87943 | 39.53585 | 34675 ft | 498 kts | 105° |
| 2026-04-25 10:57 | 56.85994 | 39.65725 | 34665 ft | 498 kts | 105° |
| 2026-04-25 10:57 | 56.84035 | 39.77850 | 34671 ft | 497 kts | 105° |
| 2026-04-25 10:58 | 56.82069 | 39.89942 | 34671 ft | 497 kts | 105° |
| 2026-04-25 10:58 | 56.80091 | 40.02038 | 34674 ft | 497 kts | 105° |
| 2026-04-25 10:59 | 56.78107 | 40.14112 | 34669 ft | 497 kts | 105° |
| 2026-04-25 10:59 | 56.76116 | 40.26159 | 34680 ft | 496 kts | 105° |
| 2026-04-25 11:00 | 56.74111 | 40.38202 | 34672 ft | 496 kts | 106° |
| 2026-04-25 11:00 | 56.72099 | 40.50216 | 34677 ft | 496 kts | 106° |
| 2026-04-25 11:01 | 56.70078 | 40.62193 | 34675 ft | 496 kts | 106° |
| 2026-04-25 11:01 | 56.68037 | 40.74198 | 34673 ft | 495 kts | 107° |
| 2026-04-25 11:02 | 56.65999 | 40.86112 | 34669 ft | 495 kts | 107° |
| 2026-04-25 11:02 | 56.63939 | 40.98090 | 34673 ft | 495 kts | 107° |
| 2026-04-25 11:03 | 56.61459 | 41.09710 | 34663 ft | 495 kts | 117° |
| 2026-04-25 11:03 | 56.57830 | 41.20285 | 34668 ft | 495 kts | 127° |
| 2026-04-25 11:04 | 56.53674 | 41.30153 | 34657 ft | 495 kts | 127° |
| 2026-04-25 11:04 | 56.49497 | 41.40047 | 34659 ft | 494 kts | 127° |
| 2026-04-25 11:05 | 56.45361 | 41.49918 | 34667 ft | 492 kts | 127° |
| 2026-04-25 11:05 | 56.41226 | 41.59788 | 34665 ft | 493 kts | 127° |
| 2026-04-25 11:06 | 56.37073 | 41.69652 | 34662 ft | 493 kts | 128° |
| 2026-04-25 11:06 | 56.32927 | 41.79454 | 34658 ft | 492 kts | 128° |
| 2026-04-25 11:07 | 56.28763 | 41.89264 | 34659 ft | 492 kts | 128° |
| 2026-04-25 11:07 | 56.24609 | 41.99013 | 34658 ft | 491 kts | 128° |
| 2026-04-25 11:08 | 56.20439 | 42.08764 | 34661 ft | 491 kts | 128° |
| 2026-04-25 11:08 | 56.16581 | 42.18840 | 34662 ft | 491 kts | 123° |
| 2026-04-25 11:09 | 56.12878 | 42.29158 | 34665 ft | 491 kts | 124° |
| 2026-04-25 11:09 | 56.09177 | 42.39348 | 34664 ft | 491 kts | 124° |
| 2026-04-25 11:10 | 56.05433 | 42.49572 | 34664 ft | 491 kts | 124° |
| 2026-04-25 11:10 | 56.01629 | 42.59734 | 34656 ft | 490 kts | 126° |
| 2026-04-25 11:11 | 55.97727 | 42.69714 | 34665 ft | 490 kts | 126° |
| 2026-04-25 11:11 | 55.93829 | 42.79647 | 34657 ft | 490 kts | 126° |
| 2026-04-25 11:12 | 55.89916 | 42.89641 | 34661 ft | 490 kts | 126° |
| 2026-04-25 11:12 | 55.86020 | 42.99572 | 34648 ft | 490 kts | 126° |
| 2026-04-25 11:13 | 55.82112 | 43.09494 | 34670 ft | 490 kts | 126° |
| 2026-04-25 11:13 | 55.78303 | 43.19601 | 34645 ft | 491 kts | 121° |
| 2026-04-25 11:14 | 55.74965 | 43.30098 | 34660 ft | 490 kts | 121° |
| 2026-04-25 11:14 | 55.71604 | 43.40665 | 34653 ft | 490 kts | 121° |
| 2026-04-25 11:15 | 55.68208 | 43.51183 | 34651 ft | 491 kts | 121° |
| 2026-04-25 11:15 | 55.64818 | 43.61607 | 34639 ft | 491 kts | 121° |
| 2026-04-25 11:16 | 55.59612 | 43.77295 | 34641 ft | 491 kts | 126° |
| 2026-04-25 11:16 | 55.55394 | 43.86641 | 34642 ft | 489 kts | 133° |
| 2026-04-25 11:17 | 55.50886 | 43.95713 | 34634 ft | 490 kts | 133° |
| 2026-04-25 11:17 | 55.47140 | 44.03269 | 34624 ft | 491 kts | 133° |
| 2026-04-25 11:18 | 55.41925 | 44.13842 | 34631 ft | 492 kts | 133° |
| 2026-04-25 11:18 | 55.37427 | 44.22962 | 34620 ft | 492 kts | 133° |
| 2026-04-25 11:19 | 55.32956 | 44.31999 | 34631 ft | 493 kts | 133° |
| 2026-04-25 11:19 | 55.28445 | 44.41072 | 34622 ft | 493 kts | 133° |
| 2026-04-25 11:20 | 55.23922 | 44.50135 | 34621 ft | 493 kts | 133° |
| 2026-04-25 11:20 | 55.19387 | 44.59188 | 34609 ft | 493 kts | 133° |
| 2026-04-25 11:21 | 55.14881 | 44.68150 | 34618 ft | 493 kts | 133° |
| 2026-04-25 11:21 | 55.10347 | 44.77135 | 34612 ft | 493 kts | 133° |
| 2026-04-25 11:22 | 55.06556 | 44.84619 | 34614 ft | 493 kts | 133° |
| 2026-04-25 11:22 | 55.01253 | 44.95049 | 34610 ft | 493 kts | 133° |
| 2026-04-25 11:23 | 54.96694 | 45.03985 | 34616 ft | 493 kts | 134° |
| 2026-04-25 11:23 | 54.92120 | 45.12913 | 34612 ft | 494 kts | 134° |
| 2026-04-25 11:24 | 54.87570 | 45.21763 | 34613 ft | 494 kts | 134° |
| 2026-04-25 11:24 | 54.82974 | 45.30672 | 34617 ft | 495 kts | 134° |
| 2026-04-25 11:25 | 54.78392 | 45.39528 | 34615 ft | 495 kts | 134° |
| 2026-04-25 11:25 | 54.73782 | 45.48396 | 34616 ft | 496 kts | 134° |
| 2026-04-25 11:26 | 54.69129 | 45.57314 | 34616 ft | 497 kts | 134° |
| 2026-04-25 11:26 | 54.64508 | 45.66132 | 34619 ft | 497 kts | 134° |
| 2026-04-25 11:27 | 54.59867 | 45.74963 | 34624 ft | 498 kts | 134° |
| 2026-04-25 11:27 | 54.55986 | 45.82322 | 34608 ft | 499 kts | 134° |
| 2026-04-25 11:28 | 54.50512 | 45.92660 | 34623 ft | 499 kts | 134° |
| 2026-04-25 11:28 | 54.45813 | 46.01504 | 34632 ft | 500 kts | 134° |
| 2026-04-25 11:29 | 54.41111 | 46.10321 | 34620 ft | 501 kts | 134° |
| 2026-04-25 11:29 | 54.36414 | 46.19093 | 34626 ft | 502 kts | 134° |
| 2026-04-25 11:30 | 54.31687 | 46.27899 | 34629 ft | 502 kts | 134° |
| 2026-04-25 11:30 | 54.26949 | 46.36673 | 34631 ft | 503 kts | 134° |
| 2026-04-25 11:31 | 54.22206 | 46.45434 | 34638 ft | 503 kts | 135° |
| 2026-04-25 11:31 | 54.17418 | 46.54244 | 34635 ft | 504 kts | 135° |
| 2026-04-25 11:32 | 54.12650 | 46.62996 | 34633 ft | 505 kts | 135° |
| 2026-04-25 11:32 | 54.07873 | 46.71735 | 34628 ft | 505 kts | 135° |
| 2026-04-25 11:33 | 54.03048 | 46.80515 | 34640 ft | 505 kts | 135° |
| 2026-04-25 11:33 | 53.98252 | 46.89211 | 34642 ft | 506 kts | 135° |
| 2026-04-25 11:34 | 53.93421 | 46.97943 | 34643 ft | 506 kts | 135° |
| 2026-04-25 11:34 | 53.88590 | 47.06641 | 34565 ft | 511 kts | 133° |
| 2026-04-25 11:35 | 53.83681 | 47.15462 | 34651 ft | 519 kts | 133° |
| 2026-04-25 11:35 | 53.78677 | 47.24410 | 34657 ft | 527 kts | 133° |
| 2026-04-25 11:36 | 53.73616 | 47.33421 | 34653 ft | 532 kts | 133° |
| 2026-04-25 11:36 | 53.68507 | 47.42486 | 34651 ft | 534 kts | 133° |
| 2026-04-25 11:37 | 53.63391 | 47.51531 | 34646 ft | 533 kts | 133° |
| 2026-04-25 11:37 | 53.58259 | 47.60571 | 34643 ft | 531 kts | 134° |
| 2026-04-25 11:38 | 53.53155 | 47.69526 | 34662 ft | 529 kts | 134° |
| 2026-04-25 11:38 | 53.48098 | 47.78369 | 34652 ft | 527 kts | 134° |
| 2026-04-25 11:39 | 53.43007 | 47.87237 | 34661 ft | 525 kts | 134° |
| 2026-04-25 11:39 | 53.37951 | 47.96012 | 34671 ft | 524 kts | 134° |
| 2026-04-25 11:40 | 53.32902 | 48.04744 | 34679 ft | 523 kts | 134° |
| 2026-04-25 11:40 | 53.28673 | 48.12031 | 34677 ft | 523 kts | 134° |
| 2026-04-25 11:41 | 53.23590 | 48.20763 | 34687 ft | 523 kts | 134° |
| 2026-04-25 11:41 | 53.18510 | 48.29457 | 34680 ft | 524 kts | 134° |
| 2026-04-25 11:42 | 53.13425 | 48.38128 | 34693 ft | 524 kts | 135° |
| 2026-04-25 11:42 | 53.08337 | 48.46775 | 34694 ft | 524 kts | 135° |
| 2026-04-25 11:43 | 53.03242 | 48.55403 | 34701 ft | 524 kts | 135° |
| 2026-04-25 11:43 | 52.98118 | 48.64047 | 34703 ft | 524 kts | 135° |
| 2026-04-25 11:44 | 52.93021 | 48.72615 | 34702 ft | 523 kts | 135° |
| 2026-04-25 11:44 | 52.87887 | 48.81215 | 34707 ft | 522 kts | 135° |
| 2026-04-25 11:45 | 52.82772 | 48.89752 | 34712 ft | 522 kts | 135° |
| 2026-04-25 11:45 | 52.77680 | 48.98222 | 34715 ft | 521 kts | 136° |
| 2026-04-25 11:46 | 52.72546 | 49.06730 | 34713 ft | 521 kts | 136° |
| 2026-04-25 11:46 | 52.67457 | 49.15135 | 34718 ft | 520 kts | 136° |
| 2026-04-25 11:47 | 52.62332 | 49.23568 | 34726 ft | 519 kts | 136° |
| 2026-04-25 11:47 | 52.57220 | 49.31952 | 34729 ft | 519 kts | 136° |
| 2026-04-25 11:48 | 52.52094 | 49.40329 | 34737 ft | 518 kts | 136° |
| 2026-04-25 11:48 | 52.47001 | 49.48624 | 34737 ft | 518 kts | 136° |
| 2026-04-25 11:49 | 52.41876 | 49.56942 | 34741 ft | 518 kts | 137° |
| 2026-04-25 11:49 | 52.36752 | 49.65229 | 34744 ft | 517 kts | 137° |
| 2026-04-25 11:50 | 52.31646 | 49.73459 | 34746 ft | 517 kts | 137° |
| 2026-04-25 11:50 | 52.26519 | 49.81694 | 34754 ft | 518 kts | 137° |
| 2026-04-25 11:51 | 52.21348 | 49.89971 | 34765 ft | 519 kts | 137° |
| 2026-04-25 11:51 | 52.16210 | 49.98168 | 34755 ft | 519 kts | 137° |
| 2026-04-25 11:52 | 52.11053 | 50.06367 | 34766 ft | 519 kts | 137° |
| 2026-04-25 11:52 | 52.05850 | 50.14611 | 34767 ft | 519 kts | 137° |
| 2026-04-25 11:53 | 52.00706 | 50.22733 | 34765 ft | 518 kts | 138° |
| 2026-04-25 11:53 | 51.95524 | 50.30889 | 34767 ft | 517 kts | 138° |
| 2026-04-25 11:54 | 51.90390 | 50.38941 | 34774 ft | 516 kts | 138° |
| 2026-04-25 11:55 | 51.82630 | 50.51060 | 34774 ft | 514 kts | 138° |
| 2026-04-25 11:55 | 51.77490 | 50.59055 | 34777 ft | 514 kts | 138° |
| 2026-04-25 11:56 | 51.72351 | 50.67019 | 34780 ft | 513 kts | 139° |
| 2026-04-25 11:56 | 51.67185 | 50.75000 | 34779 ft | 513 kts | 139° |
| 2026-04-25 11:57 | 51.62050 | 50.82908 | 34788 ft | 512 kts | 139° |
| 2026-04-25 11:57 | 51.56918 | 50.90784 | 34786 ft | 511 kts | 139° |
| 2026-04-25 11:58 | 51.51752 | 50.98687 | 34789 ft | 511 kts | 139° |
| 2026-04-25 11:58 | 51.46605 | 51.06535 | 34793 ft | 511 kts | 139° |
| 2026-04-25 11:59 | 51.41447 | 51.14374 | 34788 ft | 510 kts | 139° |
| 2026-04-25 11:59 | 51.36294 | 51.22180 | 34796 ft | 510 kts | 140° |
| 2026-04-25 12:00 | 51.28559 | 51.33852 | 34797 ft | 509 kts | 140° |
| 2026-04-25 12:01 | 51.20824 | 51.45470 | 34800 ft | 509 kts | 140° |
| 2026-04-25 12:01 | 51.15269 | 51.52215 | 34797 ft | 496 kts | 159° |
| 2026-04-25 12:02 | 51.05415 | 51.55208 | 34822 ft | 481 kts | 182° |
| 2026-04-25 12:02 | 50.98696 | 51.55493 | 34815 ft | 484 kts | 182° |
| 2026-04-25 12:03 | 50.91940 | 51.55877 | 34816 ft | 486 kts | 181° |
| 2026-04-25 12:03 | 50.85189 | 51.56320 | 34823 ft | 487 kts | 181° |
| 2026-04-25 12:04 | 50.78418 | 51.56775 | 34829 ft | 488 kts | 181° |
| 2026-04-25 12:04 | 50.71639 | 51.57225 | 34841 ft | 487 kts | 181° |
| 2026-04-25 12:05 | 50.64913 | 51.57670 | 34837 ft | 486 kts | 181° |
| 2026-04-25 12:05 | 50.58145 | 51.58110 | 34846 ft | 484 kts | 181° |
| 2026-04-25 12:06 | 50.51416 | 51.58548 | 34848 ft | 483 kts | 181° |
| 2026-04-25 12:06 | 50.44719 | 51.58983 | 34850 ft | 482 kts | 181° |
| 2026-04-25 12:07 | 50.38018 | 51.59428 | 34859 ft | 482 kts | 181° |
| 2026-04-25 12:07 | 50.31345 | 51.59889 | 34864 ft | 482 kts | 181° |
| 2026-04-25 12:08 | 50.24626 | 51.60353 | 34873 ft | 482 kts | 181° |
| 2026-04-25 12:08 | 50.17944 | 51.60811 | 34871 ft | 482 kts | 181° |
| 2026-04-25 12:09 | 50.11213 | 51.61269 | 34876 ft | 482 kts | 181° |
| 2026-04-25 12:09 | 50.04543 | 51.61722 | 34876 ft | 482 kts | 181° |
| 2026-04-25 12:10 | 49.97805 | 51.62179 | 34880 ft | 482 kts | 181° |
| 2026-04-25 12:10 | 49.91107 | 51.62632 | 34886 ft | 482 kts | 181° |
| 2026-04-25 12:11 | 49.84440 | 51.63081 | 34885 ft | 482 kts | 182° |
| 2026-04-25 12:11 | 49.77709 | 51.63533 | 34897 ft | 482 kts | 182° |
| 2026-04-25 12:12 | 49.72125 | 51.63907 | 34899 ft | 482 kts | 182° |
| 2026-04-25 12:12 | 49.64354 | 51.64426 | 34899 ft | 481 kts | 182° |
| 2026-04-25 12:13 | 49.57686 | 51.64870 | 34899 ft | 481 kts | 182° |
| 2026-04-25 12:13 | 49.50985 | 51.65316 | 34912 ft | 481 kts | 182° |
| 2026-04-25 12:14 | 49.44289 | 51.65759 | 34911 ft | 481 kts | 182° |
| 2026-04-25 12:14 | 49.37611 | 51.66201 | 34912 ft | 480 kts | 182° |
| 2026-04-25 12:15 | 49.30939 | 51.66640 | 34918 ft | 480 kts | 182° |
| 2026-04-25 12:15 | 49.24255 | 51.67080 | 34921 ft | 480 kts | 182° |
| 2026-04-25 12:16 | 49.17604 | 51.67515 | 34924 ft | 480 kts | 182° |
| 2026-04-25 12:16 | 49.10907 | 51.67954 | 34928 ft | 480 kts | 182° |
| 2026-04-25 12:17 | 49.04243 | 51.68388 | 34935 ft | 480 kts | 182° |
| 2026-04-25 12:17 | 48.97576 | 51.68821 | 34941 ft | 480 kts | 182° |
| 2026-04-25 12:18 | 48.90878 | 51.69252 | 34939 ft | 480 kts | 182° |
| 2026-04-25 12:18 | 48.84216 | 51.69681 | 34941 ft | 480 kts | 182° |
| 2026-04-25 12:19 | 48.74191 | 51.70325 | 34942 ft | 480 kts | 182° |
| 2026-04-25 12:20 | 48.67560 | 51.70749 | 34940 ft | 480 kts | 182° |
| 2026-04-25 12:20 | 48.60895 | 51.71174 | 34947 ft | 480 kts | 182° |
| 2026-04-25 12:21 | 48.54180 | 51.71602 | 34945 ft | 480 kts | 182° |
| 2026-04-25 12:21 | 48.47567 | 51.72022 | 34951 ft | 479 kts | 182° |
| 2026-04-25 12:22 | 48.40861 | 51.72446 | 34950 ft | 479 kts | 182° |
| 2026-04-25 12:22 | 48.34204 | 51.72866 | 34950 ft | 479 kts | 182° |
| 2026-04-25 12:23 | 48.27578 | 51.73284 | 34954 ft | 478 kts | 182° |
| 2026-04-25 12:23 | 48.20956 | 51.73700 | 34966 ft | 478 kts | 182° |
| 2026-04-25 12:24 | 48.14299 | 51.74117 | 34956 ft | 478 kts | 182° |
| 2026-04-25 12:24 | 48.07660 | 51.74532 | 34952 ft | 478 kts | 182° |
| 2026-04-25 12:25 | 48.00992 | 51.74947 | 34955 ft | 477 kts | 182° |
| 2026-04-25 12:25 | 47.94377 | 51.75359 | 34957 ft | 477 kts | 182° |
| 2026-04-25 12:26 | 47.87735 | 51.75771 | 34953 ft | 477 kts | 182° |
| 2026-04-25 12:26 | 47.81119 | 51.76176 | 34957 ft | 476 kts | 183° |
| 2026-04-25 12:27 | 47.74505 | 51.76573 | 34960 ft | 476 kts | 182° |
| 2026-04-25 12:27 | 47.67895 | 51.76969 | 34957 ft | 476 kts | 183° |
| 2026-04-25 12:28 | 47.61296 | 51.77364 | 34960 ft | 475 kts | 183° |
| 2026-04-25 12:28 | 47.55795 | 51.77694 | 34952 ft | 475 kts | 183° |
| 2026-04-25 12:29 | 47.49211 | 51.78087 | 34955 ft | 475 kts | 183° |
| 2026-04-25 12:29 | 47.42600 | 51.78481 | 34960 ft | 475 kts | 183° |
| 2026-04-25 12:30 | 47.35980 | 51.78874 | 34965 ft | 474 kts | 183° |
| 2026-04-25 12:30 | 47.29420 | 51.79263 | 34956 ft | 474 kts | 183° |
| 2026-04-25 12:31 | 47.22830 | 51.79653 | 34974 ft | 474 kts | 183° |
| 2026-04-25 12:31 | 47.16267 | 51.80012 | 34962 ft | 472 kts | 185° |
| 2026-04-25 12:32 | 47.09761 | 51.79226 | 34965 ft | 464 kts | 194° |
| 2026-04-25 12:32 | 47.03400 | 51.77723 | 34964 ft | 464 kts | 194° |
| 2026-04-25 12:33 | 46.97050 | 51.76270 | 34967 ft | 464 kts | 194° |
| 2026-04-25 12:33 | 46.90663 | 51.74843 | 34974 ft | 464 kts | 193° |
| 2026-04-25 12:34 | 46.84279 | 51.73427 | 34980 ft | 464 kts | 193° |
| 2026-04-25 12:34 | 46.77899 | 51.72014 | 34989 ft | 464 kts | 193° |
| 2026-04-25 12:35 | 46.71521 | 51.70603 | 34996 ft | 464 kts | 194° |
| 2026-04-25 12:35 | 46.65137 | 51.69195 | 34997 ft | 464 kts | 194° |
| 2026-04-25 12:36 | 46.58754 | 51.67789 | 35002 ft | 464 kts | 194° |
| 2026-04-25 12:36 | 46.55552 | 51.67085 | 35121 ft | 465 kts | 194° |
| 2026-04-25 12:36 | 46.52353 | 51.66383 | 35371 ft | 464 kts | 194° |
| 2026-04-25 12:36 | 46.49159 | 51.65683 | 35589 ft | 464 kts | 194° |
| 2026-04-25 12:37 | 46.45972 | 51.64985 | 35804 ft | 463 kts | 194° |
| 2026-04-25 12:37 | 46.42824 | 51.64297 | 35943 ft | 463 kts | 194° |
| 2026-04-25 12:37 | 46.39636 | 51.63598 | 35971 ft | 460 kts | 194° |
| 2026-04-25 12:38 | 46.33364 | 51.62221 | 36009 ft | 454 kts | 194° |
| 2026-04-25 12:38 | 46.27123 | 51.60846 | 36031 ft | 453 kts | 194° |
| 2026-04-25 12:39 | 46.20889 | 51.59477 | 36034 ft | 453 kts | 194° |
| 2026-04-25 12:39 | 46.14646 | 51.58110 | 36035 ft | 453 kts | 194° |
| 2026-04-25 12:40 | 46.08447 | 51.56757 | 36042 ft | 454 kts | 194° |
| 2026-04-25 12:40 | 46.02193 | 51.55396 | 36050 ft | 455 kts | 194° |
| 2026-04-25 12:41 | 45.95933 | 51.54036 | 36052 ft | 455 kts | 194° |
| 2026-04-25 12:41 | 45.89659 | 51.52677 | 36053 ft | 456 kts | 194° |
| 2026-04-25 12:42 | 45.83386 | 51.51321 | 36055 ft | 456 kts | 194° |
| 2026-04-25 12:42 | 45.77107 | 51.49966 | 36070 ft | 456 kts | 194° |
| 2026-04-25 12:43 | 45.70816 | 51.48612 | 36068 ft | 456 kts | 194° |
| 2026-04-25 12:43 | 45.61408 | 51.46596 | 36066 ft | 455 kts | 194° |
| 2026-04-25 12:44 | 45.55147 | 51.45259 | 36069 ft | 455 kts | 194° |
| 2026-04-25 12:45 | 45.45815 | 51.43270 | 36082 ft | 453 kts | 194° |
| 2026-04-25 12:45 | 45.36453 | 51.41281 | 36076 ft | 453 kts | 194° |
| 2026-04-25 12:46 | 45.30221 | 51.39961 | 36078 ft | 452 kts | 194° |
| 2026-04-25 12:46 | 45.24001 | 51.38646 | 36082 ft | 452 kts | 194° |
| 2026-04-25 12:47 | 45.17792 | 51.37337 | 36082 ft | 451 kts | 194° |
| 2026-04-25 12:47 | 45.11568 | 51.36026 | 36092 ft | 451 kts | 194° |
| 2026-04-25 12:48 | 45.05351 | 51.34721 | 36097 ft | 452 kts | 194° |
| 2026-04-25 12:48 | 44.99136 | 51.33427 | 36114 ft | 452 kts | 194° |
| 2026-04-25 12:49 | 44.92895 | 51.32189 | 36122 ft | 453 kts | 194° |
| 2026-04-25 12:49 | 44.86644 | 51.31046 | 36128 ft | 453 kts | 193° |
| 2026-04-25 12:50 | 44.80413 | 51.30006 | 36155 ft | 454 kts | 193° |
| 2026-04-25 12:50 | 44.74129 | 51.29067 | 36161 ft | 454 kts | 192° |
| 2026-04-25 12:51 | 44.67826 | 51.28245 | 36180 ft | 455 kts | 192° |
| 2026-04-25 12:51 | 44.61504 | 51.27558 | 36195 ft | 456 kts | 191° |
| 2026-04-25 12:52 | 44.55180 | 51.26998 | 36193 ft | 453 kts | 192° |
| 2026-04-25 12:52 | 44.52189 | 51.25987 | 36137 ft | 435 kts | 209° |
| 2026-04-25 12:52 | 44.49465 | 51.24205 | 36104 ft | 434 kts | 211° |
| 2026-04-25 12:53 | 44.43842 | 51.20923 | 36106 ft | 442 kts | 204° |
| 2026-04-25 12:53 | 44.37819 | 51.18795 | 36118 ft | 449 kts | 198° |
| 2026-04-25 12:54 | 44.31632 | 51.17238 | 36107 ft | 453 kts | 197° |
| 2026-04-25 12:54 | 44.25461 | 51.15777 | 36126 ft | 453 kts | 197° |
| 2026-04-25 12:55 | 44.20304 | 51.14532 | 36124 ft | 453 kts | 197° |
| 2026-04-25 12:55 | 44.13050 | 51.12769 | 36126 ft | 452 kts | 197° |
| 2026-04-25 12:56 | 44.06859 | 51.11254 | 36130 ft | 451 kts | 197° |
| 2026-04-25 12:56 | 44.00697 | 51.09734 | 36140 ft | 449 kts | 197° |
| 2026-04-25 12:57 | 43.94546 | 51.08220 | 36146 ft | 448 kts | 198° |
| 2026-04-25 12:57 | 43.91442 | 51.07698 | 36136 ft | 455 kts | 186° |
| 2026-04-25 12:57 | 43.88253 | 51.08364 | 36156 ft | 474 kts | 171° |
| 2026-04-25 12:58 | 43.85168 | 51.10134 | 36166 ft | 489 kts | 159° |
| 2026-04-25 12:58 | 43.82373 | 51.12950 | 36150 ft | 507 kts | 143° |
| 2026-04-25 12:58 | 43.77477 | 51.20093 | 36161 ft | 514 kts | 140° |
| 2026-04-25 12:59 | 43.72642 | 51.27315 | 36144 ft | 515 kts | 141° |
| 2026-04-25 12:59 | 43.67694 | 51.34502 | 36122 ft | 516 kts | 142° |
| 2026-04-25 13:00 | 43.64360 | 51.39265 | 36110 ft | 516 kts | 143° |
| 2026-04-25 13:00 | 43.57715 | 51.48712 | 36098 ft | 514 kts | 143° |
| 2026-04-25 13:01 | 43.52727 | 51.55795 | 36089 ft | 513 kts | 143° |
| 2026-04-25 13:01 | 43.47755 | 51.62846 | 36088 ft | 512 kts | 143° |
| 2026-04-25 13:02 | 43.42828 | 51.69813 | 36084 ft | 511 kts | 143° |
| 2026-04-25 13:02 | 43.37872 | 51.76809 | 36080 ft | 510 kts | 144° |
| 2026-04-25 13:03 | 43.32923 | 51.83773 | 36090 ft | 510 kts | 144° |
| 2026-04-25 13:03 | 43.27915 | 51.90659 | 36090 ft | 509 kts | 145° |
| 2026-04-25 13:04 | 43.22879 | 51.97485 | 36085 ft | 509 kts | 145° |
| 2026-04-25 13:04 | 43.17847 | 52.04334 | 36076 ft | 510 kts | 145° |
| 2026-04-25 13:05 | 43.12808 | 52.11181 | 36077 ft | 509 kts | 146° |
| 2026-04-25 13:05 | 43.07772 | 52.17987 | 36079 ft | 508 kts | 146° |
| 2026-04-25 13:06 | 43.02739 | 52.24784 | 36066 ft | 508 kts | 145° |
| 2026-04-25 13:06 | 42.97727 | 52.31585 | 36069 ft | 508 kts | 146° |
| 2026-04-25 13:07 | 42.92702 | 52.38344 | 36065 ft | 507 kts | 146° |
| 2026-04-25 13:07 | 42.87693 | 52.45052 | 36061 ft | 507 kts | 146° |
| 2026-04-25 13:08 | 42.82668 | 52.51774 | 36058 ft | 507 kts | 146° |
| 2026-04-25 13:08 | 42.77629 | 52.58502 | 36055 ft | 507 kts | 146° |
| 2026-04-25 13:09 | 42.72592 | 52.65212 | 36062 ft | 507 kts | 146° |
| 2026-04-25 13:09 | 42.67556 | 52.71906 | 36059 ft | 507 kts | 146° |
| 2026-04-25 13:10 | 42.62510 | 52.78596 | 36056 ft | 506 kts | 146° |
| 2026-04-25 13:10 | 42.57465 | 52.85269 | 36051 ft | 506 kts | 146° |
| 2026-04-25 13:11 | 42.52416 | 52.91932 | 36049 ft | 506 kts | 146° |
| 2026-04-25 13:11 | 42.47368 | 52.98578 | 36047 ft | 506 kts | 146° |
| 2026-04-25 13:12 | 42.42311 | 53.05219 | 36038 ft | 506 kts | 146° |
| 2026-04-25 13:12 | 42.38933 | 53.09648 | 36038 ft | 506 kts | 147° |
| 2026-04-25 13:13 | 42.32196 | 53.18459 | 36043 ft | 506 kts | 147° |
| 2026-04-25 13:13 | 42.27133 | 53.25064 | 36038 ft | 506 kts | 147° |
| 2026-04-25 13:14 | 42.22067 | 53.31656 | 36026 ft | 506 kts | 147° |
| 2026-04-25 13:14 | 42.16996 | 53.38242 | 36028 ft | 506 kts | 147° |
| 2026-04-25 13:15 | 42.12786 | 53.43702 | 36027 ft | 505 kts | 147° |
| 2026-04-25 13:15 | 42.07720 | 53.50261 | 36028 ft | 505 kts | 147° |
| 2026-04-25 13:16 | 42.02656 | 53.56801 | 36027 ft | 504 kts | 147° |
| 2026-04-25 13:16 | 41.97597 | 53.63318 | 36031 ft | 503 kts | 147° |
| 2026-04-25 13:17 | 41.92553 | 53.69803 | 36028 ft | 502 kts | 147° |
| 2026-04-25 13:17 | 41.87514 | 53.76265 | 36027 ft | 500 kts | 147° |
| 2026-04-25 13:18 | 41.82472 | 53.82717 | 36024 ft | 499 kts | 147° |
| 2026-04-25 13:18 | 41.77450 | 53.89127 | 36036 ft | 498 kts | 147° |
| 2026-04-25 13:19 | 41.72432 | 53.95518 | 36033 ft | 497 kts | 147° |
| 2026-04-25 13:19 | 41.68272 | 54.00806 | 36030 ft | 496 kts | 147° |
| 2026-04-25 13:20 | 41.62462 | 54.08174 | 36029 ft | 495 kts | 147° |
| 2026-04-25 13:20 | 41.57467 | 54.14492 | 36035 ft | 494 kts | 147° |
| 2026-04-25 13:21 | 41.52460 | 54.20812 | 36031 ft | 493 kts | 147° |
| 2026-04-25 13:21 | 41.47513 | 54.27043 | 36032 ft | 492 kts | 147° |
| 2026-04-25 13:22 | 41.42523 | 54.33314 | 36048 ft | 491 kts | 147° |
| 2026-04-25 13:23 | 41.35065 | 54.42659 | 36047 ft | 492 kts | 147° |
| 2026-04-25 13:23 | 41.30075 | 54.48893 | 36038 ft | 493 kts | 147° |
| 2026-04-25 13:24 | 41.25075 | 54.55129 | 36037 ft | 493 kts | 146° |
| 2026-04-25 13:24 | 41.20078 | 54.61349 | 36041 ft | 493 kts | 146° |
| 2026-04-25 13:25 | 41.15056 | 54.67584 | 36042 ft | 494 kts | 146° |
| 2026-04-25 13:25 | 41.10029 | 54.73812 | 36044 ft | 494 kts | 146° |
| 2026-04-25 13:26 | 41.04996 | 54.80035 | 36047 ft | 495 kts | 146° |
| 2026-04-25 13:26 | 40.99952 | 54.86260 | 36043 ft | 496 kts | 146° |
| 2026-04-25 13:27 | 40.94935 | 54.92431 | 36043 ft | 496 kts | 146° |
| 2026-04-25 13:27 | 40.89863 | 54.98650 | 36044 ft | 496 kts | 146° |
| 2026-04-25 13:28 | 40.84797 | 55.04852 | 36034 ft | 496 kts | 146° |
| 2026-04-25 13:28 | 40.79735 | 55.11040 | 36041 ft | 495 kts | 146° |
| 2026-04-25 13:29 | 40.74677 | 55.17207 | 36033 ft | 495 kts | 146° |
| 2026-04-25 13:29 | 40.69776 | 55.23171 | 36031 ft | 494 kts | 146° |
| 2026-04-25 13:30 | 40.62202 | 55.32361 | 36026 ft | 493 kts | 146° |
| 2026-04-25 13:31 | 40.54628 | 55.41523 | 36026 ft | 492 kts | 146° |
| 2026-04-25 13:31 | 40.49583 | 55.47610 | 36010 ft | 492 kts | 146° |
| 2026-04-25 13:32 | 40.44572 | 55.53642 | 36003 ft | 491 kts | 146° |
| 2026-04-25 13:32 | 40.39535 | 55.59693 | 35993 ft | 491 kts | 146° |
| 2026-04-25 13:33 | 40.34497 | 55.65733 | 35990 ft | 490 kts | 146° |
| 2026-04-25 13:33 | 40.29464 | 55.71758 | 35987 ft | 490 kts | 146° |
| 2026-04-25 13:34 | 40.24432 | 55.77773 | 35979 ft | 490 kts | 146° |
| 2026-04-25 13:34 | 40.19411 | 55.83806 | 35978 ft | 490 kts | 146° |
| 2026-04-25 13:35 | 40.14385 | 55.89841 | 35971 ft | 490 kts | 146° |
| 2026-04-25 13:35 | 40.09369 | 55.95848 | 35962 ft | 490 kts | 146° |
| 2026-04-25 13:36 | 40.04338 | 56.01858 | 35961 ft | 490 kts | 146° |
| 2026-04-25 13:36 | 39.99342 | 56.07812 | 35958 ft | 490 kts | 146° |
| 2026-04-25 13:37 | 39.94304 | 56.13805 | 35944 ft | 491 kts | 146° |
| 2026-04-25 13:37 | 39.89260 | 56.19796 | 35953 ft | 491 kts | 146° |
| 2026-04-25 13:38 | 39.84210 | 56.25767 | 35949 ft | 490 kts | 147° |
| 2026-04-25 13:38 | 39.79128 | 56.31708 | 35943 ft | 490 kts | 147° |
| 2026-04-25 13:39 | 39.74046 | 56.37630 | 35935 ft | 491 kts | 147° |
| 2026-04-25 13:39 | 39.68962 | 56.43554 | 35934 ft | 491 kts | 147° |
| 2026-04-25 13:40 | 39.63865 | 56.49484 | 35940 ft | 492 kts | 147° |
| 2026-04-25 13:40 | 39.58792 | 56.55373 | 35939 ft | 492 kts | 147° |
| 2026-04-25 13:41 | 39.53676 | 56.61302 | 35939 ft | 493 kts | 147° |
| 2026-04-25 13:41 | 39.48563 | 56.67214 | 35934 ft | 494 kts | 147° |
| 2026-04-25 13:42 | 39.43432 | 56.73137 | 35936 ft | 494 kts | 148° |
| 2026-04-25 13:42 | 39.38294 | 56.79056 | 35939 ft | 495 kts | 148° |
| 2026-04-25 13:43 | 39.33151 | 56.84979 | 35934 ft | 495 kts | 147° |
| 2026-04-25 13:43 | 39.28047 | 56.90876 | 35935 ft | 495 kts | 147° |
| 2026-04-25 13:44 | 39.22908 | 56.96806 | 35932 ft | 495 kts | 147° |
| 2026-04-25 13:44 | 39.17770 | 57.02720 | 35930 ft | 495 kts | 148° |
| 2026-04-25 13:45 | 39.12637 | 57.08614 | 35928 ft | 494 kts | 148° |
| 2026-04-25 13:45 | 39.07491 | 57.14509 | 35923 ft | 494 kts | 148° |
| 2026-04-25 13:46 | 39.02356 | 57.20380 | 35921 ft | 494 kts | 148° |
| 2026-04-25 13:46 | 38.97215 | 57.26246 | 35921 ft | 494 kts | 148° |
| 2026-04-25 13:47 | 38.92055 | 57.32123 | 35912 ft | 495 kts | 148° |
| 2026-04-25 13:47 | 38.86895 | 57.37986 | 35919 ft | 496 kts | 148° |
| 2026-04-25 13:48 | 38.81758 | 57.43814 | 35906 ft | 497 kts | 148° |
| 2026-04-25 13:48 | 38.76553 | 57.49706 | 35909 ft | 497 kts | 148° |
| 2026-04-25 13:49 | 38.71361 | 57.55574 | 35902 ft | 498 kts | 148° |
| 2026-04-25 13:49 | 38.66188 | 57.61409 | 35904 ft | 498 kts | 148° |
| 2026-04-25 13:50 | 38.60981 | 57.67267 | 35906 ft | 498 kts | 148° |
| 2026-04-25 13:50 | 38.55760 | 57.73046 | 35903 ft | 497 kts | 148° |
| 2026-04-25 13:51 | 38.50514 | 57.78805 | 35903 ft | 497 kts | 148° |
| 2026-04-25 13:51 | 38.45279 | 57.84553 | 35900 ft | 496 kts | 148° |
| 2026-04-25 13:52 | 38.40046 | 57.90297 | 35900 ft | 496 kts | 148° |
| 2026-04-25 13:52 | 38.34814 | 57.96031 | 35898 ft | 496 kts | 148° |
| 2026-04-25 13:53 | 38.29584 | 58.01750 | 35916 ft | 495 kts | 148° |
| 2026-04-25 13:53 | 38.24383 | 58.07427 | 35910 ft | 495 kts | 148° |
| 2026-04-25 13:54 | 38.19157 | 58.13120 | 35910 ft | 495 kts | 148° |
| 2026-04-25 13:54 | 38.13927 | 58.18806 | 35911 ft | 495 kts | 148° |
| 2026-04-25 13:55 | 38.08690 | 58.24491 | 35904 ft | 495 kts | 148° |
| 2026-04-25 13:55 | 38.03493 | 58.30244 | 35897 ft | 500 kts | 141° |
| 2026-04-25 13:55 | 38.01367 | 58.33784 | 35909 ft | 515 kts | 127° |
| 2026-04-25 13:56 | 37.99860 | 58.37950 | 35916 ft | 528 kts | 113° |
| 2026-04-25 13:56 | 37.99080 | 58.42559 | 35914 ft | 536 kts | 102° |
| 2026-04-25 13:56 | 37.98624 | 58.47260 | 35921 ft | 538 kts | 101° |
| 2026-04-25 13:57 | 37.97774 | 58.56714 | 35911 ft | 541 kts | 101° |
| 2026-04-25 13:57 | 37.96830 | 58.66134 | 35907 ft | 542 kts | 102° |
| 2026-04-25 13:58 | 37.95798 | 58.75605 | 35897 ft | 543 kts | 102° |
| 2026-04-25 13:58 | 37.94747 | 58.85062 | 35886 ft | 542 kts | 102° |
| 2026-04-25 13:59 | 37.93698 | 58.94514 | 35881 ft | 540 kts | 102° |
| 2026-04-25 13:59 | 37.92650 | 59.03922 | 35874 ft | 538 kts | 102° |
| 2026-04-25 14:00 | 37.91775 | 59.11717 | 35878 ft | 537 kts | 102° |
| 2026-04-25 14:00 | 37.90542 | 59.22635 | 35875 ft | 535 kts | 102° |
| 2026-04-25 14:01 | 37.89127 | 59.31832 | 35870 ft | 527 kts | 114° |
| 2026-04-25 14:01 | 37.86095 | 59.40057 | 35884 ft | 514 kts | 128° |
| 2026-04-25 14:02 | 37.81860 | 59.47249 | 35881 ft | 509 kts | 135° |
| 2026-04-25 14:02 | 37.77488 | 59.54323 | 35882 ft | 512 kts | 134° |
| 2026-04-25 14:03 | 37.73122 | 59.61471 | 35880 ft | 515 kts | 134° |
| 2026-04-25 14:03 | 37.68754 | 59.68685 | 35882 ft | 518 kts | 134° |
| 2026-04-25 14:04 | 37.64373 | 59.75924 | 35883 ft | 521 kts | 134° |
| 2026-04-25 14:04 | 37.59956 | 59.83202 | 35877 ft | 523 kts | 135° |
| 2026-04-25 14:05 | 37.56258 | 59.89278 | 35876 ft | 525 kts | 135° |
| 2026-04-25 14:05 | 37.51805 | 59.96578 | 35888 ft | 527 kts | 135° |
| 2026-04-25 14:06 | 37.47321 | 60.03913 | 35885 ft | 529 kts | 135° |
| 2026-04-25 14:06 | 37.42825 | 60.11252 | 35884 ft | 530 kts | 135° |
| 2026-04-25 14:07 | 37.38316 | 60.18596 | 35894 ft | 531 kts | 135° |
| 2026-04-25 14:07 | 37.33789 | 60.25953 | 35894 ft | 531 kts | 135° |
| 2026-04-25 14:08 | 37.29263 | 60.33292 | 35891 ft | 532 kts | 136° |
| 2026-04-25 14:08 | 37.24730 | 60.40627 | 35889 ft | 532 kts | 136° |
| 2026-04-25 14:09 | 37.20195 | 60.47948 | 35888 ft | 532 kts | 136° |
| 2026-04-25 14:09 | 37.15653 | 60.55265 | 35890 ft | 531 kts | 136° |
| 2026-04-25 14:10 | 37.11109 | 60.62570 | 35894 ft | 531 kts | 136° |
| 2026-04-25 14:10 | 37.06594 | 60.69811 | 35893 ft | 531 kts | 136° |
| 2026-04-25 14:11 | 37.02041 | 60.77099 | 35896 ft | 530 kts | 136° |
| 2026-04-25 14:11 | 36.97489 | 60.84386 | 35897 ft | 531 kts | 135° |
| 2026-04-25 14:12 | 36.93176 | 60.91929 | 35900 ft | 534 kts | 132° |
| 2026-04-25 14:12 | 36.88953 | 60.99528 | 35896 ft | 534 kts | 132° |
| 2026-04-25 14:13 | 36.84705 | 61.07119 | 35893 ft | 533 kts | 132° |
| 2026-04-25 14:13 | 36.80417 | 61.14714 | 35890 ft | 533 kts | 132° |
| 2026-04-25 14:14 | 36.76153 | 61.22239 | 35889 ft | 532 kts | 132° |
| 2026-04-25 14:14 | 36.71881 | 61.29766 | 35885 ft | 532 kts | 132° |
| 2026-04-25 14:15 | 36.67598 | 61.37301 | 35885 ft | 531 kts | 132° |
| 2026-04-25 14:15 | 36.63343 | 61.44772 | 35886 ft | 530 kts | 132° |
| 2026-04-25 14:16 | 36.59037 | 61.52228 | 35884 ft | 529 kts | 133° |
| 2026-04-25 14:16 | 36.54708 | 61.59578 | 35905 ft | 528 kts | 133° |
| 2026-04-25 14:17 | 36.50364 | 61.66936 | 35882 ft | 528 kts | 133° |
| 2026-04-25 14:17 | 36.46033 | 61.74280 | 35883 ft | 527 kts | 132° |
| 2026-04-25 14:18 | 36.41682 | 61.81654 | 35898 ft | 527 kts | 132° |
| 2026-04-25 14:18 | 36.37357 | 61.88970 | 35901 ft | 527 kts | 132° |
| 2026-04-25 14:19 | 36.33005 | 61.96311 | 35893 ft | 528 kts | 132° |
| 2026-04-25 14:19 | 36.28655 | 62.03635 | 35903 ft | 528 kts | 132° |
| 2026-04-25 14:20 | 36.24298 | 62.10954 | 35905 ft | 528 kts | 132° |
| 2026-04-25 14:20 | 36.19934 | 62.18271 | 35904 ft | 528 kts | 132° |
| 2026-04-25 14:21 | 36.15567 | 62.25578 | 35904 ft | 527 kts | 132° |
| 2026-04-25 14:21 | 36.11198 | 62.32869 | 35900 ft | 526 kts | 132° |
| 2026-04-25 14:22 | 36.06836 | 62.40136 | 35908 ft | 526 kts | 132° |
| 2026-04-25 14:22 | 36.02472 | 62.47389 | 35904 ft | 526 kts | 132° |
| 2026-04-25 14:23 | 35.98103 | 62.54636 | 35908 ft | 526 kts | 132° |
| 2026-04-25 14:23 | 35.93731 | 62.61873 | 35911 ft | 526 kts | 132° |
| 2026-04-25 14:24 | 35.89383 | 62.69055 | 35911 ft | 526 kts | 132° |
| 2026-04-25 14:24 | 35.84996 | 62.76286 | 35908 ft | 527 kts | 132° |
| 2026-04-25 14:25 | 35.80597 | 62.83522 | 35914 ft | 527 kts | 132° |
| 2026-04-25 14:25 | 35.76194 | 62.90750 | 35919 ft | 528 kts | 132° |
| 2026-04-25 14:26 | 35.71783 | 62.97975 | 35924 ft | 528 kts | 132° |
| 2026-04-25 14:26 | 35.67369 | 63.05193 | 35931 ft | 529 kts | 132° |
| 2026-04-25 14:27 | 35.62939 | 63.12423 | 35930 ft | 530 kts | 132° |
| 2026-04-25 14:27 | 35.60584 | 63.15857 | 35917 ft | 519 kts | 144° |
| 2026-04-25 14:27 | 35.57688 | 63.18373 | 35944 ft | 503 kts | 160° |
| 2026-04-25 14:27 | 35.54487 | 63.19939 | 35944 ft | 491 kts | 173° |
| 2026-04-25 14:28 | 35.51176 | 63.20575 | 35936 ft | 474 kts | 186° |
| 2026-04-25 14:28 | 35.44579 | 63.20776 | 35963 ft | 476 kts | 185° |
| 2026-04-25 14:29 | 35.37964 | 63.21134 | 35959 ft | 481 kts | 184° |
| 2026-04-25 14:29 | 35.31267 | 63.21550 | 35962 ft | 483 kts | 184° |
| 2026-04-25 14:30 | 35.24542 | 63.21972 | 35963 ft | 483 kts | 184° |
| 2026-04-25 14:30 | 35.14498 | 63.22591 | 35977 ft | 480 kts | 184° |
| 2026-04-25 14:31 | 35.07829 | 63.22995 | 35973 ft | 479 kts | 184° |
| 2026-04-25 14:31 | 35.01189 | 63.23397 | 35989 ft | 477 kts | 184° |
| 2026-04-25 14:32 | 34.94561 | 63.23796 | 35997 ft | 476 kts | 184° |
| 2026-04-25 14:32 | 34.87955 | 63.24195 | 36012 ft | 475 kts | 184° |
| 2026-04-25 14:33 | 34.81374 | 63.24591 | 36025 ft | 475 kts | 184° |
| 2026-04-25 14:33 | 34.74769 | 63.24988 | 36035 ft | 476 kts | 184° |
| 2026-04-25 14:34 | 34.68171 | 63.25383 | 36035 ft | 477 kts | 184° |
| 2026-04-25 14:34 | 34.61504 | 63.25781 | 36042 ft | 479 kts | 184° |
| 2026-04-25 14:35 | 34.54856 | 63.26180 | 36066 ft | 479 kts | 184° |
| 2026-04-25 14:35 | 34.48189 | 63.26579 | 36069 ft | 482 kts | 184° |
| 2026-04-25 14:36 | 34.41490 | 63.26980 | 36060 ft | 483 kts | 184° |
| 2026-04-25 14:36 | 34.34777 | 63.27380 | 36067 ft | 484 kts | 183° |
| 2026-04-25 14:37 | 34.28032 | 63.27782 | 36065 ft | 485 kts | 183° |
| 2026-04-25 14:37 | 34.21306 | 63.28181 | 36074 ft | 485 kts | 183° |
| 2026-04-25 14:38 | 34.14559 | 63.28583 | 36080 ft | 485 kts | 183° |
| 2026-04-25 14:38 | 34.07824 | 63.28981 | 36086 ft | 485 kts | 183° |
| 2026-04-25 14:39 | 34.01070 | 63.29387 | 36084 ft | 486 kts | 183° |
| 2026-04-25 14:39 | 33.94314 | 63.29791 | 36104 ft | 486 kts | 183° |
| 2026-04-25 14:40 | 33.87603 | 63.30184 | 36105 ft | 485 kts | 183° |
| 2026-04-25 14:40 | 33.80863 | 63.30575 | 36109 ft | 485 kts | 183° |
| 2026-04-25 14:41 | 33.74127 | 63.30968 | 36110 ft | 485 kts | 183° |
| 2026-04-25 14:41 | 33.67388 | 63.31359 | 36107 ft | 484 kts | 183° |
| 2026-04-25 14:42 | 33.62895 | 63.31630 | 36101 ft | 483 kts | 183° |
| 2026-04-25 14:42 | 33.53946 | 63.32154 | 36095 ft | 485 kts | 183° |
| 2026-04-25 14:43 | 33.47187 | 63.32546 | 36068 ft | 487 kts | 183° |
| 2026-04-25 14:43 | 33.40415 | 63.32937 | 36063 ft | 488 kts | 183° |
| 2026-04-25 14:44 | 33.33626 | 63.33332 | 36041 ft | 489 kts | 183° |
| 2026-04-25 14:44 | 33.26839 | 63.33730 | 36029 ft | 487 kts | 183° |
| 2026-04-25 14:45 | 33.20088 | 63.34123 | 36019 ft | 485 kts | 183° |
| 2026-04-25 14:45 | 33.13341 | 63.34512 | 36008 ft | 485 kts | 183° |
| 2026-04-25 14:46 | 33.06601 | 63.34901 | 35999 ft | 485 kts | 183° |
| 2026-04-25 14:46 | 32.99850 | 63.35290 | 35995 ft | 486 kts | 183° |
| 2026-04-25 14:47 | 32.95369 | 63.35548 | 35994 ft | 487 kts | 183° |
| 2026-04-25 14:47 | 32.86293 | 63.36071 | 35990 ft | 489 kts | 183° |
| 2026-04-25 14:48 | 32.79526 | 63.36459 | 35983 ft | 490 kts | 183° |
| 2026-04-25 14:48 | 32.72712 | 63.36851 | 35972 ft | 491 kts | 183° |
| 2026-04-25 14:49 | 32.65870 | 63.37243 | 35969 ft | 491 kts | 183° |
| 2026-04-25 14:49 | 32.59042 | 63.37635 | 35964 ft | 492 kts | 183° |
| 2026-04-25 14:50 | 32.52199 | 63.38026 | 35955 ft | 492 kts | 183° |
| 2026-04-25 14:50 | 32.46520 | 63.38350 | 35927 ft | 491 kts | 183° |
| 2026-04-25 14:51 | 32.38536 | 63.38805 | 35941 ft | 491 kts | 183° |
| 2026-04-25 14:51 | 32.32845 | 63.39129 | 35929 ft | 492 kts | 183° |
| 2026-04-25 14:52 | 32.26001 | 63.39517 | 35920 ft | 493 kts | 183° |
| 2026-04-25 14:52 | 32.20299 | 63.39841 | 35911 ft | 494 kts | 183° |
| 2026-04-25 14:53 | 32.12252 | 63.40700 | 35912 ft | 498 kts | 178° |
| 2026-04-25 14:53 | 32.05379 | 63.41759 | 35899 ft | 499 kts | 178° |
| 2026-04-25 14:54 | 31.98499 | 63.42819 | 35898 ft | 499 kts | 178° |
| 2026-04-25 14:54 | 31.91618 | 63.43853 | 35898 ft | 499 kts | 178° |
| 2026-04-25 14:55 | 31.84770 | 63.44869 | 35899 ft | 499 kts | 178° |
| 2026-04-25 14:55 | 31.77847 | 63.45891 | 35896 ft | 499 kts | 178° |
| 2026-04-25 14:56 | 31.70971 | 63.46907 | 35900 ft | 499 kts | 178° |
| 2026-04-25 14:56 | 31.64071 | 63.47925 | 35888 ft | 499 kts | 178° |
| 2026-04-25 14:57 | 31.57180 | 63.48941 | 35895 ft | 499 kts | 178° |
| 2026-04-25 14:57 | 31.50297 | 63.49954 | 35890 ft | 499 kts | 178° |
| 2026-04-25 14:58 | 31.43421 | 63.50965 | 35889 ft | 499 kts | 178° |
| 2026-04-25 14:58 | 31.36538 | 63.51975 | 35888 ft | 499 kts | 178° |
| 2026-04-25 14:59 | 31.29669 | 63.52982 | 35892 ft | 498 kts | 178° |
| 2026-04-25 14:59 | 31.22767 | 63.53992 | 35890 ft | 498 kts | 178° |
| 2026-04-25 15:00 | 31.15896 | 63.54995 | 35889 ft | 498 kts | 178° |
| 2026-04-25 15:00 | 31.09012 | 63.56000 | 35886 ft | 497 kts | 178° |
| 2026-04-25 15:01 | 31.02158 | 63.56998 | 35884 ft | 497 kts | 178° |
| 2026-04-25 15:01 | 30.95341 | 63.57990 | 35880 ft | 496 kts | 178° |
| 2026-04-25 15:02 | 30.88493 | 63.58985 | 35880 ft | 496 kts | 177° |
| 2026-04-25 15:02 | 30.81648 | 63.59977 | 35872 ft | 495 kts | 177° |
| 2026-04-25 15:03 | 30.74810 | 63.60968 | 35865 ft | 495 kts | 177° |
| 2026-04-25 15:03 | 30.67979 | 63.61956 | 35870 ft | 494 kts | 177° |
| 2026-04-25 15:04 | 30.61151 | 63.62942 | 35867 ft | 494 kts | 177° |
| 2026-04-25 15:04 | 30.54329 | 63.63928 | 35873 ft | 494 kts | 177° |
| 2026-04-25 15:05 | 30.47511 | 63.64908 | 35873 ft | 494 kts | 177° |
| 2026-04-25 15:06 | 30.37278 | 63.66378 | 35877 ft | 494 kts | 177° |
| 2026-04-25 15:06 | 30.30500 | 63.67351 | 35879 ft | 494 kts | 177° |
| 2026-04-25 15:07 | 30.23692 | 63.68327 | 35884 ft | 493 kts | 177° |
| 2026-04-25 15:07 | 30.16880 | 63.69302 | 35887 ft | 493 kts | 177° |
| 2026-04-25 15:08 | 30.10081 | 63.70274 | 35894 ft | 492 kts | 177° |
| 2026-04-25 15:08 | 30.03287 | 63.71243 | 35900 ft | 491 kts | 177° |
| 2026-04-25 15:09 | 29.96507 | 63.72209 | 35907 ft | 491 kts | 177° |
| 2026-04-25 15:09 | 29.86339 | 63.73656 | 35913 ft | 490 kts | 177° |
| 2026-04-25 15:10 | 29.79561 | 63.74618 | 35922 ft | 490 kts | 177° |
| 2026-04-25 15:11 | 29.69437 | 63.76053 | 35938 ft | 491 kts | 177° |
| 2026-04-25 15:11 | 29.62642 | 63.77015 | 35936 ft | 492 kts | 177° |
| 2026-04-25 15:12 | 29.52454 | 63.78455 | 35940 ft | 492 kts | 177° |
| 2026-04-25 15:12 | 29.47911 | 63.79096 | 35941 ft | 492 kts | 177° |
| 2026-04-25 15:13 | 29.35449 | 63.80852 | 35931 ft | 493 kts | 176° |
| 2026-04-25 15:14 | 29.28644 | 63.81808 | 35913 ft | 493 kts | 176° |
| 2026-04-25 15:14 | 29.21837 | 63.82763 | 35908 ft | 493 kts | 176° |
| 2026-04-25 15:15 | 29.15026 | 63.83718 | 35898 ft | 493 kts | 176° |
| 2026-04-25 15:15 | 29.08253 | 63.84668 | 35553 ft | 489 kts | 176° |
| 2026-04-25 15:15 | 29.04910 | 63.85136 | 35179 ft | 491 kts | 176° |
| 2026-04-25 15:16 | 29.01466 | 63.85616 | 34887 ft | 492 kts | 176° |
| 2026-04-25 15:16 | 28.91263 | 63.87040 | 34856 ft | 496 kts | 176° |
| 2026-04-25 15:17 | 28.81000 | 63.88471 | 34836 ft | 494 kts | 176° |
| 2026-04-25 15:18 | 28.74172 | 63.89421 | 34836 ft | 494 kts | 176° |
| 2026-04-25 15:18 | 28.63946 | 63.90841 | 34829 ft | 493 kts | 176° |
| 2026-04-25 15:19 | 28.59441 | 63.91466 | 34833 ft | 493 kts | 176° |
| 2026-04-25 15:19 | 28.50365 | 63.92722 | 34821 ft | 494 kts | 176° |
| 2026-04-25 15:20 | 28.43540 | 63.93666 | 34828 ft | 494 kts | 176° |
| 2026-04-25 15:20 | 28.36718 | 63.94609 | 34821 ft | 494 kts | 176° |
| 2026-04-25 15:21 | 28.29885 | 63.95551 | 34815 ft | 494 kts | 176° |
| 2026-04-25 15:21 | 28.23046 | 63.96493 | 34811 ft | 494 kts | 176° |
| 2026-04-25 15:22 | 28.16225 | 63.97432 | 34804 ft | 494 kts | 177° |
| 2026-04-25 15:22 | 28.09362 | 63.98372 | 34818 ft | 503 kts | 177° |
| 2026-04-25 15:23 | 28.02360 | 63.99331 | 34811 ft | 510 kts | 177° |
| 2026-04-25 15:23 | 27.95275 | 64.00240 | 34813 ft | 514 kts | 178° |
| 2026-04-25 15:24 | 27.88182 | 64.01205 | 34802 ft | 518 kts | 177° |
| 2026-04-25 15:24 | 27.83397 | 64.01882 | 34809 ft | 519 kts | 177° |
| 2026-04-25 15:25 | 27.73828 | 64.03214 | 34811 ft | 520 kts | 178° |
| 2026-04-25 15:25 | 27.66652 | 64.04194 | 34817 ft | 519 kts | 178° |
| 2026-04-25 15:26 | 27.59497 | 64.05167 | 34821 ft | 517 kts | 178° |
| 2026-04-25 15:26 | 27.52366 | 64.06136 | 34834 ft | 516 kts | 178° |
| 2026-04-25 15:27 | 27.45237 | 64.07104 | 34847 ft | 515 kts | 178° |
| 2026-04-25 15:28 | 27.34586 | 64.08549 | 34869 ft | 514 kts | 177° |
| 2026-04-25 15:28 | 27.27484 | 64.09512 | 34871 ft | 514 kts | 177° |
| 2026-04-25 15:29 | 27.20378 | 64.10475 | 34886 ft | 514 kts | 177° |
| 2026-04-25 15:29 | 27.13274 | 64.11437 | 34890 ft | 514 kts | 177° |
| 2026-04-25 15:30 | 27.06216 | 64.12395 | 34897 ft | 515 kts | 177° |
| 2026-04-25 15:30 | 26.99102 | 64.13034 | 34885 ft | 507 kts | 190° |
| 2026-04-25 15:30 | 26.95722 | 64.12124 | 34900 ft | 498 kts | 205° |
| 2026-04-25 15:31 | 26.92663 | 64.10355 | 34901 ft | 492 kts | 218° |
| 2026-04-25 15:31 | 26.90093 | 64.07882 | 34888 ft | 484 kts | 229° |
| 2026-04-25 15:31 | 26.87770 | 64.05143 | 34928 ft | 487 kts | 229° |
| 2026-04-25 15:32 | 26.83053 | 63.99637 | 35113 ft | 491 kts | 229° |
| 2026-04-25 15:32 | 26.80665 | 63.96896 | 35275 ft | 491 kts | 228° |
| 2026-04-25 15:32 | 26.78269 | 63.94170 | 35469 ft | 491 kts | 228° |
| 2026-04-25 15:33 | 26.73460 | 63.88740 | 35762 ft | 491 kts | 228° |
| 2026-04-25 15:33 | 26.71055 | 63.86033 | 35811 ft | 492 kts | 228° |
| 2026-04-25 15:33 | 26.66219 | 63.80597 | 35875 ft | 494 kts | 228° |
| 2026-04-25 15:34 | 26.61367 | 63.75146 | 35883 ft | 495 kts | 228° |
| 2026-04-25 15:34 | 26.58148 | 63.71533 | 35886 ft | 495 kts | 228° |
| 2026-04-25 15:35 | 26.49233 | 63.61539 | 35891 ft | 496 kts | 227° |
| 2026-04-25 15:36 | 26.41916 | 63.53352 | 35889 ft | 497 kts | 227° |
| 2026-04-25 15:36 | 26.37033 | 63.47899 | 35885 ft | 497 kts | 227° |
| 2026-04-25 15:37 | 26.32145 | 63.42446 | 35884 ft | 496 kts | 227° |
| 2026-04-25 15:37 | 26.27265 | 63.37009 | 35878 ft | 496 kts | 227° |
| 2026-04-25 15:38 | 26.22374 | 63.31567 | 35874 ft | 496 kts | 227° |
| 2026-04-25 15:38 | 26.17491 | 63.26140 | 35873 ft | 497 kts | 227° |
| 2026-04-25 15:39 | 26.12597 | 63.20708 | 35870 ft | 497 kts | 227° |
| 2026-04-25 15:39 | 26.08527 | 63.16196 | 35859 ft | 497 kts | 227° |
| 2026-04-25 15:40 | 26.04452 | 63.11683 | 35862 ft | 497 kts | 227° |
| 2026-04-25 15:40 | 25.97923 | 63.04463 | 35855 ft | 497 kts | 227° |
| 2026-04-25 15:41 | 25.93016 | 62.99043 | 35850 ft | 497 kts | 227° |
| 2026-04-25 15:41 | 25.88937 | 62.94544 | 35846 ft | 497 kts | 227° |
| 2026-04-25 15:42 | 25.84028 | 62.89134 | 35843 ft | 497 kts | 227° |
| 2026-04-25 15:42 | 25.79112 | 62.83724 | 35846 ft | 497 kts | 227° |
| 2026-04-25 15:43 | 25.74193 | 62.78319 | 35840 ft | 497 kts | 227° |
| 2026-04-25 15:43 | 25.69274 | 62.72918 | 35841 ft | 497 kts | 227° |
| 2026-04-25 15:44 | 25.64356 | 62.67526 | 35844 ft | 497 kts | 227° |
| 2026-04-25 15:44 | 25.59435 | 62.62137 | 35849 ft | 497 kts | 227° |
| 2026-04-25 15:45 | 25.54506 | 62.56747 | 35848 ft | 497 kts | 227° |
| 2026-04-25 15:45 | 25.50417 | 62.52279 | 35848 ft | 497 kts | 227° |
| 2026-04-25 15:46 | 25.44658 | 62.45994 | 35852 ft | 497 kts | 227° |
| 2026-04-25 15:46 | 25.39725 | 62.40618 | 35850 ft | 498 kts | 227° |
| 2026-04-25 15:47 | 25.34786 | 62.35243 | 35853 ft | 498 kts | 227° |
| 2026-04-25 15:47 | 25.29841 | 62.29867 | 35855 ft | 498 kts | 227° |
| 2026-04-25 15:48 | 25.24927 | 62.24531 | 35855 ft | 499 kts | 227° |
| 2026-04-25 15:48 | 25.19970 | 62.19156 | 35849 ft | 499 kts | 227° |
| 2026-04-25 15:49 | 25.14981 | 62.13752 | 35853 ft | 499 kts | 227° |
| 2026-04-25 15:49 | 25.10054 | 62.08422 | 35850 ft | 500 kts | 227° |
| 2026-04-25 15:50 | 25.05090 | 62.03058 | 35854 ft | 500 kts | 226° |
| 2026-04-25 15:50 | 25.00121 | 61.97695 | 35858 ft | 500 kts | 226° |
| 2026-04-25 15:51 | 24.95954 | 61.93203 | 35857 ft | 500 kts | 226° |
| 2026-04-25 15:51 | 24.90184 | 61.86989 | 35856 ft | 500 kts | 226° |
| 2026-04-25 15:52 | 24.85198 | 61.81628 | 35860 ft | 501 kts | 226° |
| 2026-04-25 15:52 | 24.80211 | 61.76271 | 35859 ft | 501 kts | 226° |
| 2026-04-25 15:53 | 24.75223 | 61.70920 | 35860 ft | 501 kts | 226° |
| 2026-04-25 15:53 | 24.70230 | 61.65570 | 35863 ft | 501 kts | 226° |
| 2026-04-25 15:54 | 24.65232 | 61.60222 | 35864 ft | 501 kts | 226° |
| 2026-04-25 15:54 | 24.60233 | 61.54879 | 35865 ft | 502 kts | 226° |
| 2026-04-25 15:55 | 24.55259 | 61.49571 | 35866 ft | 502 kts | 226° |
| 2026-04-25 15:55 | 24.50217 | 61.44199 | 35864 ft | 502 kts | 226° |
| 2026-04-25 15:56 | 24.45234 | 61.38893 | 35862 ft | 502 kts | 226° |
| 2026-04-25 15:56 | 24.40866 | 61.32984 | 35886 ft | 498 kts | 243° |
| 2026-04-25 15:57 | 24.38308 | 61.25984 | 35860 ft | 493 kts | 258° |
| 2026-04-25 15:57 | 24.36845 | 61.18635 | 35860 ft | 493 kts | 259° |
| 2026-04-25 15:58 | 24.35405 | 61.11268 | 35870 ft | 494 kts | 259° |
| 2026-04-25 15:58 | 24.33904 | 61.03906 | 35904 ft | 494 kts | 259° |
| 2026-04-25 15:59 | 24.32364 | 60.96541 | 35885 ft | 496 kts | 258° |
| 2026-04-25 15:59 | 24.30810 | 60.89167 | 35867 ft | 496 kts | 258° |
| 2026-04-25 16:00 | 24.29779 | 60.84280 | 35879 ft | 496 kts | 258° |
| 2026-04-25 16:00 | 24.27704 | 60.74448 | 35874 ft | 497 kts | 258° |
| 2026-04-25 16:01 | 24.26136 | 60.67033 | 35876 ft | 496 kts | 258° |
| 2026-04-25 16:01 | 24.24574 | 60.59668 | 35870 ft | 496 kts | 258° |
| 2026-04-25 16:02 | 24.23016 | 60.52340 | 35887 ft | 496 kts | 258° |
| 2026-04-25 16:02 | 24.21449 | 60.44989 | 35878 ft | 496 kts | 258° |
| 2026-04-25 16:03 | 24.19878 | 60.37635 | 35886 ft | 495 kts | 258° |
| 2026-04-25 16:03 | 24.18305 | 60.30294 | 35883 ft | 495 kts | 259° |
| 2026-04-25 16:04 | 24.16726 | 60.22942 | 35879 ft | 495 kts | 258° |
| 2026-04-25 16:04 | 24.15146 | 60.15610 | 35871 ft | 494 kts | 258° |
| 2026-04-25 16:05 | 24.13566 | 60.08289 | 35885 ft | 494 kts | 259° |
| 2026-04-25 16:06 | 24.11194 | 59.97322 | 35894 ft | 494 kts | 259° |
| 2026-04-25 16:06 | 24.09616 | 59.90055 | 35887 ft | 493 kts | 259° |
| 2026-04-25 16:07 | 24.08027 | 59.82755 | 35891 ft | 493 kts | 259° |
| 2026-04-25 16:07 | 24.06435 | 59.75462 | 35886 ft | 493 kts | 259° |
| 2026-04-25 16:08 | 24.04838 | 59.68165 | 35881 ft | 492 kts | 259° |
| 2026-04-25 16:08 | 24.03241 | 59.60880 | 35886 ft | 492 kts | 259° |
| 2026-04-25 16:09 | 24.01641 | 59.53607 | 35876 ft | 492 kts | 259° |
| 2026-04-25 16:09 | 24.00046 | 59.46371 | 35893 ft | 491 kts | 259° |
| 2026-04-25 16:10 | 23.98431 | 59.39064 | 35888 ft | 491 kts | 259° |
| 2026-04-25 16:10 | 23.96831 | 59.31846 | 35887 ft | 491 kts | 259° |
| 2026-04-25 16:11 | 23.95218 | 59.24599 | 35887 ft | 491 kts | 259° |
| 2026-04-25 16:11 | 23.93786 | 59.17311 | 35890 ft | 488 kts | 267° |
| 2026-04-25 16:12 | 23.94116 | 59.09961 | 35894 ft | 483 kts | 282° |
| 2026-04-25 16:12 | 23.96062 | 59.02978 | 35892 ft | 480 kts | 291° |
| 2026-04-25 16:13 | 23.98347 | 58.96170 | 35888 ft | 480 kts | 291° |
| 2026-04-25 16:13 | 24.00628 | 58.89258 | 35893 ft | 480 kts | 290° |
| 2026-04-25 16:14 | 24.02834 | 58.82412 | 35880 ft | 480 kts | 290° |
| 2026-04-25 16:14 | 24.05033 | 58.75515 | 35886 ft | 479 kts | 290° |
| 2026-04-25 16:15 | 24.07219 | 58.68639 | 35888 ft | 478 kts | 290° |
| 2026-04-25 16:15 | 24.09404 | 58.61764 | 35887 ft | 477 kts | 290° |
| 2026-04-25 16:16 | 24.11566 | 58.54954 | 35884 ft | 476 kts | 290° |
| 2026-04-25 16:16 | 24.13752 | 58.48057 | 35886 ft | 475 kts | 290° |
| 2026-04-25 16:17 | 24.15894 | 58.41285 | 35883 ft | 473 kts | 290° |
| 2026-04-25 16:17 | 24.18044 | 58.34479 | 35889 ft | 472 kts | 290° |
| 2026-04-25 16:18 | 24.20186 | 58.27684 | 35887 ft | 471 kts | 290° |
| 2026-04-25 16:18 | 24.22320 | 58.20903 | 35887 ft | 471 kts | 290° |
| 2026-04-25 16:19 | 24.24450 | 58.14122 | 35892 ft | 470 kts | 290° |
| 2026-04-25 16:19 | 24.26578 | 58.07337 | 35894 ft | 470 kts | 290° |
| 2026-04-25 16:20 | 24.29744 | 57.97220 | 35895 ft | 470 kts | 289° |
| 2026-04-25 16:21 | 24.32926 | 57.87024 | 35893 ft | 469 kts | 289° |
| 2026-04-25 16:21 | 24.34991 | 57.80392 | 35882 ft | 453 kts | 289° |
| 2026-04-25 16:22 | 24.37013 | 57.73891 | 35894 ft | 449 kts | 289° |
| 2026-04-25 16:22 | 24.39022 | 57.67419 | 35897 ft | 447 kts | 289° |
| 2026-04-25 16:23 | 24.40996 | 57.60980 | 35880 ft | 441 kts | 289° |
| 2026-04-25 16:23 | 24.42938 | 57.54663 | 35890 ft | 433 kts | 289° |
| 2026-04-25 16:24 | 24.44865 | 57.48431 | 35334 ft | 432 kts | 288° |
| 2026-04-25 16:24 | 24.45826 | 57.45320 | 34856 ft | 429 kts | 288° |
| 2026-04-25 16:24 | 24.46780 | 57.42228 | 34368 ft | 427 kts | 288° |
| 2026-04-25 16:24 | 24.47732 | 57.39143 | 33857 ft | 425 kts | 287° |
| 2026-04-25 16:25 | 24.48356 | 57.37112 | 33478 ft | 424 kts | 287° |
| 2026-04-25 16:25 | 24.48990 | 57.35045 | 33113 ft | 422 kts | 287° |
| 2026-04-25 16:25 | 24.50555 | 57.30003 | 32274 ft | 417 kts | 287° |
| 2026-04-25 16:25 | 24.51167 | 57.28007 | 31939 ft | 416 kts | 287° |
| 2026-04-25 16:26 | 24.52081 | 57.25002 | 31447 ft | 414 kts | 287° |
| 2026-04-25 16:26 | 24.52992 | 57.22009 | 30962 ft | 412 kts | 287° |
| 2026-04-25 16:26 | 24.53899 | 57.19037 | 30474 ft | 410 kts | 287° |
| 2026-04-25 16:26 | 24.54808 | 57.16063 | 29981 ft | 409 kts | 287° |
| 2026-04-25 16:27 | 24.55714 | 57.13102 | 29412 ft | 408 kts | 287° |
| 2026-04-25 16:27 | 24.56615 | 57.10154 | 28884 ft | 407 kts | 287° |
| 2026-04-25 16:27 | 24.57512 | 57.07219 | 28381 ft | 405 kts | 287° |
| 2026-04-25 16:27 | 24.58406 | 57.04291 | 27879 ft | 403 kts | 287° |
| 2026-04-25 16:28 | 24.59293 | 57.01384 | 27387 ft | 401 kts | 287° |
| 2026-04-25 16:28 | 24.60177 | 56.98483 | 26907 ft | 399 kts | 287° |
| 2026-04-25 16:28 | 24.61032 | 56.95675 | 26437 ft | 398 kts | 287° |
| 2026-04-25 16:28 | 24.61933 | 56.92715 | 25943 ft | 397 kts | 287° |
| 2026-04-25 16:29 | 24.62808 | 56.89839 | 25460 ft | 396 kts | 287° |
| 2026-04-25 16:29 | 24.63678 | 56.86976 | 24979 ft | 395 kts | 287° |
| 2026-04-25 16:29 | 24.64580 | 56.84120 | 24491 ft | 396 kts | 290° |
| 2026-04-25 16:29 | 24.65699 | 56.81350 | 24008 ft | 396 kts | 293° |
| 2026-04-25 16:30 | 24.66877 | 56.78608 | 23529 ft | 397 kts | 293° |
| 2026-04-25 16:30 | 24.68061 | 56.75872 | 22971 ft | 397 kts | 294° |
| 2026-04-25 16:30 | 24.69243 | 56.73137 | 22463 ft | 395 kts | 293° |
| 2026-04-25 16:30 | 24.70417 | 56.70409 | 21971 ft | 393 kts | 293° |
| 2026-04-25 16:31 | 24.71580 | 56.67696 | 21495 ft | 392 kts | 293° |
| 2026-04-25 16:31 | 24.72737 | 56.64990 | 21018 ft | 390 kts | 293° |
| 2026-04-25 16:31 | 24.73889 | 56.62290 | 20550 ft | 388 kts | 293° |
| 2026-04-25 16:31 | 24.75035 | 56.59606 | 20080 ft | 387 kts | 293° |
| 2026-04-25 16:32 | 24.76176 | 56.56927 | 19611 ft | 385 kts | 293° |
| 2026-04-25 16:32 | 24.77291 | 56.54309 | 19122 ft | 371 kts | 293° |
| 2026-04-25 16:32 | 24.78360 | 56.51795 | 18693 ft | 357 kts | 293° |
| 2026-04-25 16:32 | 24.79394 | 56.49362 | 18243 ft | 345 kts | 293° |
| 2026-04-25 16:33 | 24.80396 | 56.47001 | 17770 ft | 334 kts | 293° |
| 2026-04-25 16:33 | 24.81348 | 56.44756 | 17344 ft | 323 kts | 293° |
| 2026-04-25 16:33 | 24.82287 | 56.42539 | 16940 ft | 316 kts | 293° |
| 2026-04-25 16:33 | 24.83213 | 56.40349 | 16553 ft | 317 kts | 293° |
| 2026-04-25 16:34 | 24.84155 | 56.38120 | 16167 ft | 328 kts | 293° |
| 2026-04-25 16:34 | 24.85145 | 56.35773 | 15770 ft | 344 kts | 294° |
| 2026-04-25 16:34 | 24.86158 | 56.33377 | 15323 ft | 343 kts | 294° |
| 2026-04-25 16:34 | 24.87153 | 56.31025 | 14893 ft | 333 kts | 294° |
| 2026-04-25 16:35 | 24.88114 | 56.28755 | 14473 ft | 321 kts | 294° |
| 2026-04-25 16:35 | 24.89040 | 56.26563 | 14086 ft | 311 kts | 294° |
| 2026-04-25 16:35 | 24.89942 | 56.24428 | 13710 ft | 304 kts | 294° |
| 2026-04-25 16:35 | 24.90844 | 56.22289 | 13362 ft | 314 kts | 294° |
| 2026-04-25 16:36 | 24.91778 | 56.20071 | 13038 ft | 322 kts | 294° |
| 2026-04-25 16:36 | 24.92082 | 56.19348 | 12890 ft | 323 kts | 294° |
| 2026-04-25 16:36 | 24.93606 | 56.15539 | 12127 ft | 326 kts | 289° |
| 2026-04-25 16:36 | 24.94370 | 56.13204 | 11848 ft | 321 kts | 288° |
| 2026-04-25 16:37 | 24.95090 | 56.10899 | 11619 ft | 315 kts | 288° |
| 2026-04-25 16:37 | 24.95791 | 56.08641 | 11387 ft | 309 kts | 287° |
| 2026-04-25 16:37 | 24.96493 | 56.06401 | 11033 ft | 307 kts | 288° |
| 2026-04-25 16:37 | 24.97185 | 56.04217 | 10546 ft | 298 kts | 288° |
| 2026-04-25 16:38 | 24.97860 | 56.02103 | 10179 ft | 284 kts | 288° |
| 2026-04-25 16:38 | 24.98507 | 56.00087 | 10038 ft | 279 kts | 288° |
| 2026-04-25 16:38 | 24.99153 | 55.98064 | 10037 ft | 283 kts | 288° |
| 2026-04-25 16:38 | 24.99809 | 55.96017 | 10025 ft | 280 kts | 288° |
| 2026-04-25 16:39 | 25.00453 | 55.94013 | 10008 ft | 276 kts | 288° |
| 2026-04-25 16:39 | 25.01095 | 55.92014 | 9837 ft | 279 kts | 288° |
| 2026-04-25 16:39 | 25.01752 | 55.89968 | 9374 ft | 286 kts | 288° |
| 2026-04-25 16:39 | 25.02419 | 55.87887 | 8892 ft | 290 kts | 288° |
| 2026-04-25 16:40 | 25.03095 | 55.85777 | 8399 ft | 294 kts | 288° |
| 2026-04-25 16:40 | 25.03784 | 55.83633 | 7942 ft | 297 kts | 289° |
| 2026-04-25 16:40 | 25.04478 | 55.81471 | 7473 ft | 300 kts | 289° |
| 2026-04-25 16:40 | 25.05169 | 55.79312 | 7024 ft | 303 kts | 289° |
| 2026-04-25 16:41 | 25.05874 | 55.77110 | 6697 ft | 301 kts | 289° |
| 2026-04-25 16:41 | 25.06330 | 55.75686 | 6618 ft | 295 kts | 289° |
| 2026-04-25 16:41 | 25.07840 | 55.70968 | 6052 ft | 262 kts | 290° |
| 2026-04-25 16:42 | 25.08429 | 55.69126 | 5697 ft | 248 kts | 289° |
| 2026-04-25 16:42 | 25.08988 | 55.67374 | 5327 ft | 236 kts | 290° |
| 2026-04-25 16:42 | 25.09528 | 55.65686 | 4993 ft | 232 kts | 290° |
| 2026-04-25 16:42 | 25.10098 | 55.64024 | 4675 ft | 231 kts | 295° |
| 2026-04-25 16:43 | 25.10851 | 55.62490 | 4321 ft | 223 kts | 301° |
| 2026-04-25 16:43 | 25.11638 | 55.61066 | 4035 ft | 210 kts | 302° |
| 2026-04-25 16:43 | 25.12396 | 55.59708 | 4016 ft | 209 kts | 301° |
| 2026-04-25 16:43 | 25.13154 | 55.58342 | 3743 ft | 207 kts | 302° |
| 2026-04-25 16:44 | 25.13892 | 55.57013 | 3490 ft | 200 kts | 302° |
| 2026-04-25 16:44 | 25.14601 | 55.55734 | 3243 ft | 190 kts | 301° |
| 2026-04-25 16:44 | 25.15281 | 55.54507 | 3027 ft | 183 kts | 302° |
| 2026-04-25 16:44 | 25.15921 | 55.53352 | 2780 ft | 170 kts | 302° |
| 2026-04-25 16:45 | 25.16524 | 55.52263 | 2587 ft | 165 kts | 303° |
| 2026-04-25 16:45 | 25.17127 | 55.51174 | 2376 ft | 167 kts | 303° |
| 2026-04-25 16:45 | 25.17718 | 55.50106 | 2153 ft | 160 kts | 302° |
| 2026-04-25 16:45 | 25.18293 | 55.49070 | 1940 ft | 156 kts | 303° |
| 2026-04-25 16:46 | 25.18860 | 55.48046 | 1736 ft | 157 kts | 303° |
| 2026-04-25 16:46 | 25.19414 | 55.47010 | 1560 ft | 157 kts | 302° |
| 2026-04-25 16:46 | 25.19968 | 55.45978 | 1332 ft | 155 kts | 302° |
| 2026-04-25 16:46 | 25.20155 | 55.45648 | 1251 ft | 156 kts | 304° |
| 2026-04-25 16:47 | 25.21109 | 55.43952 | 978 ft | 158 kts | 299° |
| 2026-04-25 16:47 | 25.21663 | 55.42888 | 916 ft | 160 kts | 303° |
| 2026-04-25 16:47 | 25.22269 | 55.41865 | 630 ft | 155 kts | 300° |
| 2026-04-25 16:47 | 25.22811 | 55.40837 | 411 ft | 152 kts | 302° |
| 2026-04-25 16:48 | 25.23365 | 55.39888 | 149 ft | 149 kts | 301° |
| 2026-04-25 16:48 | 25.23887 | 55.38930 | 36 ft | 135 kts | 301° |
| 2026-04-25 16:48 | 25.24316 | 55.38179 | 37 ft | 94 kts | 302° |
| 2026-04-25 16:48 | 25.24593 | 55.37676 | 33 ft | 72 kts | 300° |
| 2026-04-25 16:49 | 25.24776 | 55.37302 | 34 ft | 15 kts | 279° |
| 2026-04-25 16:49 | 25.24785 | 55.37179 | 33 ft | 18 kts | 275° |
| 2026-04-25 16:49 | 25.24790 | 55.37035 | 29 ft | 21 kts | 270° |
| 2026-04-25 16:49 | 25.24733 | 55.36933 | 27 ft | 15 kts | 212° |
| 2026-04-25 16:50 | 25.24634 | 55.36863 | 26 ft | 23 kts | 212° |
| 2026-04-25 16:50 | 25.24588 | 55.36831 | 31 ft | 10 kts | 212° |
| 2026-04-25 16:50 | 25.24572 | 55.36822 | 30 ft | 1 kts | 202° |
| 2026-04-25 16:50 | 25.24547 | 55.36838 | 31 ft | 9 kts | 134° |
| 2026-04-25 16:51 | 25.24503 | 55.36902 | 31 ft | 7 kts | 121° |
| 2026-04-25 16:51 | 25.24499 | 55.36908 | 31 ft | 0 kts | 121° |